<?xml version="1.0" encoding="UTF-8" standalone="no" ?>
<gpx xmlns="http://www.topografix.com/GPX/1/1" xmlns:xsi="http://www.w3.org/2001/XMLSchema-instance" xsi:schemaLocation="http://www.topografix.com/GPX/1/1 http://www.topografix.com/GPX/1/1/gpx.xsd" version="1.1" creator="VisuGPX - https://www.visugpx.com">
  <metadata>
    <name>V3C-Bonsecours-65km-2023</name>
  </metadata>
  <trk>
    <name><![CDATA[Bonsecours 65km -2023-14836760]]></name>
    <trkseg>
      <trkpt lat="50.50253" lon="3.5888">
        <ele>42</ele>
        <time>2023-05-18T00:12:29Z</time>
      </trkpt>
      <trkpt lat="50.50218" lon="3.5888">
        <ele>42</ele>
        <time>2023-05-18T00:12:37Z</time>
      </trkpt>
      <trkpt lat="50.50211" lon="3.58886">
        <ele>42</ele>
        <time>2023-05-18T00:12:39Z</time>
      </trkpt>
      <trkpt lat="50.50201" lon="3.5891">
        <ele>42</ele>
        <time>2023-05-18T00:12:43Z</time>
      </trkpt>
      <trkpt lat="50.50186" lon="3.58916">
        <ele>42</ele>
        <time>2023-05-18T00:12:47Z</time>
      </trkpt>
      <trkpt lat="50.50179" lon="3.58916">
        <ele>42</ele>
        <time>2023-05-18T00:12:49Z</time>
      </trkpt>
      <trkpt lat="50.50173" lon="3.5892">
        <ele>42</ele>
        <time>2023-05-18T00:12:50Z</time>
      </trkpt>
      <trkpt lat="50.50158" lon="3.58922">
        <ele>42</ele>
        <time>2023-05-18T00:12:54Z</time>
      </trkpt>
      <trkpt lat="50.49987" lon="3.58919">
        <ele>41</ele>
        <time>2023-05-18T00:13:34Z</time>
      </trkpt>
      <trkpt lat="50.49942" lon="3.58925">
        <ele>40</ele>
        <time>2023-05-18T00:13:44Z</time>
      </trkpt>
      <trkpt lat="50.49784" lon="3.58979">
        <ele>39</ele>
        <time>2023-05-18T00:14:22Z</time>
      </trkpt>
      <trkpt lat="50.49687" lon="3.59008">
        <ele>40</ele>
        <time>2023-05-18T00:14:45Z</time>
      </trkpt>
      <trkpt lat="50.49525" lon="3.59063">
        <ele>40</ele>
        <time>2023-05-18T00:15:24Z</time>
      </trkpt>
      <trkpt lat="50.49457" lon="3.591">
        <ele>41</ele>
        <time>2023-05-18T00:15:40Z</time>
      </trkpt>
      <trkpt lat="50.49366" lon="3.59154">
        <ele>42</ele>
        <time>2023-05-18T00:16:03Z</time>
      </trkpt>
      <trkpt lat="50.49209" lon="3.59255">
        <ele>50</ele>
        <time>2023-05-18T00:16:43Z</time>
      </trkpt>
      <trkpt lat="50.49169" lon="3.59278">
        <ele>53</ele>
        <time>2023-05-18T00:16:53Z</time>
      </trkpt>
      <trkpt lat="50.49083" lon="3.59319">
        <ele>55</ele>
        <time>2023-05-18T00:17:14Z</time>
      </trkpt>
      <trkpt lat="50.49073" lon="3.59335">
        <ele>55</ele>
        <time>2023-05-18T00:17:17Z</time>
      </trkpt>
      <trkpt lat="50.49097" lon="3.59408">
        <ele>53</ele>
        <time>2023-05-18T00:17:29Z</time>
      </trkpt>
      <trkpt lat="50.49146" lon="3.5954">
        <ele>55</ele>
        <time>2023-05-18T00:17:52Z</time>
      </trkpt>
      <trkpt lat="50.4928" lon="3.5989">
        <ele>54</ele>
        <time>2023-05-18T00:18:53Z</time>
      </trkpt>
      <trkpt lat="50.49382" lon="3.60213">
        <ele>53</ele>
        <time>2023-05-18T00:19:46Z</time>
      </trkpt>
      <trkpt lat="50.49534" lon="3.60709">
        <ele>49</ele>
        <time>2023-05-18T00:21:08Z</time>
      </trkpt>
      <trkpt lat="50.49576" lon="3.60747">
        <ele>50</ele>
        <time>2023-05-18T00:21:19Z</time>
      </trkpt>
      <trkpt lat="50.49634" lon="3.60828">
        <ele>52</ele>
        <time>2023-05-18T00:21:37Z</time>
      </trkpt>
      <trkpt lat="50.49652" lon="3.60877">
        <ele>52</ele>
        <time>2023-05-18T00:21:46Z</time>
      </trkpt>
      <trkpt lat="50.49688" lon="3.6094">
        <ele>53</ele>
        <time>2023-05-18T00:21:58Z</time>
      </trkpt>
      <trkpt lat="50.49696" lon="3.60959">
        <ele>54</ele>
        <time>2023-05-18T00:22:02Z</time>
      </trkpt>
      <trkpt lat="50.49695" lon="3.61104">
        <ele>55</ele>
        <time>2023-05-18T00:22:23Z</time>
      </trkpt>
      <trkpt lat="50.49698" lon="3.61121">
        <ele>55</ele>
        <time>2023-05-18T00:22:26Z</time>
      </trkpt>
      <trkpt lat="50.49651" lon="3.61128">
        <ele>52</ele>
        <time>2023-05-18T00:22:37Z</time>
      </trkpt>
      <trkpt lat="50.49595" lon="3.61124">
        <ele>50</ele>
        <time>2023-05-18T00:22:50Z</time>
      </trkpt>
      <trkpt lat="50.49545" lon="3.61143">
        <ele>48</ele>
        <time>2023-05-18T00:23:02Z</time>
      </trkpt>
      <trkpt lat="50.49471" lon="3.61201">
        <ele>47</ele>
        <time>2023-05-18T00:23:21Z</time>
      </trkpt>
      <trkpt lat="50.49456" lon="3.61227">
        <ele>47</ele>
        <time>2023-05-18T00:23:27Z</time>
      </trkpt>
      <trkpt lat="50.49427" lon="3.61256">
        <ele>46</ele>
        <time>2023-05-18T00:23:35Z</time>
      </trkpt>
      <trkpt lat="50.494" lon="3.61265">
        <ele>46</ele>
        <time>2023-05-18T00:23:41Z</time>
      </trkpt>
      <trkpt lat="50.4938" lon="3.61261">
        <ele>47</ele>
        <time>2023-05-18T00:23:46Z</time>
      </trkpt>
      <trkpt lat="50.49345" lon="3.61263">
        <ele>47</ele>
        <time>2023-05-18T00:23:54Z</time>
      </trkpt>
      <trkpt lat="50.49285" lon="3.613">
        <ele>48</ele>
        <time>2023-05-18T00:24:09Z</time>
      </trkpt>
      <trkpt lat="50.49258" lon="3.61337">
        <ele>48</ele>
        <time>2023-05-18T00:24:17Z</time>
      </trkpt>
      <trkpt lat="50.49248" lon="3.61372">
        <ele>47</ele>
        <time>2023-05-18T00:24:23Z</time>
      </trkpt>
      <trkpt lat="50.49217" lon="3.61392">
        <ele>47</ele>
        <time>2023-05-18T00:24:31Z</time>
      </trkpt>
      <trkpt lat="50.49175" lon="3.61432">
        <ele>48</ele>
        <time>2023-05-18T00:24:42Z</time>
      </trkpt>
      <trkpt lat="50.49152" lon="3.61475">
        <ele>47</ele>
        <time>2023-05-18T00:24:51Z</time>
      </trkpt>
      <trkpt lat="50.49123" lon="3.61486">
        <ele>47</ele>
        <time>2023-05-18T00:24:58Z</time>
      </trkpt>
      <trkpt lat="50.49063" lon="3.61539">
        <ele>46</ele>
        <time>2023-05-18T00:25:14Z</time>
      </trkpt>
      <trkpt lat="50.49039" lon="3.61535">
        <ele>45</ele>
        <time>2023-05-18T00:25:19Z</time>
      </trkpt>
      <trkpt lat="50.48995" lon="3.61562">
        <ele>43</ele>
        <time>2023-05-18T00:25:30Z</time>
      </trkpt>
      <trkpt lat="50.48749" lon="3.61838">
        <ele>39</ele>
        <time>2023-05-18T00:26:41Z</time>
      </trkpt>
      <trkpt lat="50.48683" lon="3.61916">
        <ele>39</ele>
        <time>2023-05-18T00:27:00Z</time>
      </trkpt>
      <trkpt lat="50.48527" lon="3.62219">
        <ele>35</ele>
        <time>2023-05-18T00:27:58Z</time>
      </trkpt>
      <trkpt lat="50.48502" lon="3.62272">
        <ele>34</ele>
        <time>2023-05-18T00:28:08Z</time>
      </trkpt>
      <trkpt lat="50.48582" lon="3.62295">
        <ele>41</ele>
        <time>2023-05-18T00:28:27Z</time>
      </trkpt>
      <trkpt lat="50.49222" lon="3.62463">
        <ele>44</ele>
        <time>2023-05-18T00:30:59Z</time>
      </trkpt>
      <trkpt lat="50.49394" lon="3.63356">
        <ele>52</ele>
        <time>2023-05-18T00:33:17Z</time>
      </trkpt>
      <trkpt lat="50.49457" lon="3.63305">
        <ele>54</ele>
        <time>2023-05-18T00:33:34Z</time>
      </trkpt>
      <trkpt lat="50.4949" lon="3.63273">
        <ele>55</ele>
        <time>2023-05-18T00:33:43Z</time>
      </trkpt>
      <trkpt lat="50.49513" lon="3.63239">
        <ele>56</ele>
        <time>2023-05-18T00:33:50Z</time>
      </trkpt>
      <trkpt lat="50.49559" lon="3.63538">
        <ele>63</ele>
        <time>2023-05-18T00:34:36Z</time>
      </trkpt>
      <trkpt lat="50.49559" lon="3.636">
        <ele>62</ele>
        <time>2023-05-18T00:34:45Z</time>
      </trkpt>
      <trkpt lat="50.49604" lon="3.637">
        <ele>63</ele>
        <time>2023-05-18T00:35:03Z</time>
      </trkpt>
      <trkpt lat="50.4963" lon="3.63721">
        <ele>64</ele>
        <time>2023-05-18T00:35:10Z</time>
      </trkpt>
      <trkpt lat="50.49713" lon="3.63755">
        <ele>63</ele>
        <time>2023-05-18T00:35:30Z</time>
      </trkpt>
      <trkpt lat="50.49788" lon="3.63781">
        <ele>59</ele>
        <time>2023-05-18T00:35:48Z</time>
      </trkpt>
      <trkpt lat="50.49788" lon="3.63793">
        <ele>60</ele>
        <time>2023-05-18T00:35:50Z</time>
      </trkpt>
      <trkpt lat="50.49698" lon="3.63963">
        <ele>59</ele>
        <time>2023-05-18T00:36:23Z</time>
      </trkpt>
      <trkpt lat="50.49654" lon="3.64026">
        <ele>57</ele>
        <time>2023-05-18T00:36:37Z</time>
      </trkpt>
      <trkpt lat="50.49631" lon="3.64053">
        <ele>56</ele>
        <time>2023-05-18T00:36:43Z</time>
      </trkpt>
      <trkpt lat="50.4955" lon="3.64132">
        <ele>50</ele>
        <time>2023-05-18T00:37:06Z</time>
      </trkpt>
      <trkpt lat="50.49556" lon="3.64189">
        <ele>48</ele>
        <time>2023-05-18T00:37:14Z</time>
      </trkpt>
      <trkpt lat="50.49565" lon="3.64225">
        <ele>48</ele>
        <time>2023-05-18T00:37:20Z</time>
      </trkpt>
      <trkpt lat="50.49577" lon="3.64295">
        <ele>47</ele>
        <time>2023-05-18T00:37:31Z</time>
      </trkpt>
      <trkpt lat="50.49632" lon="3.64246">
        <ele>50</ele>
        <time>2023-05-18T00:37:45Z</time>
      </trkpt>
      <trkpt lat="50.49658" lon="3.64211">
        <ele>53</ele>
        <time>2023-05-18T00:37:53Z</time>
      </trkpt>
      <trkpt lat="50.49687" lon="3.64157">
        <ele>54</ele>
        <time>2023-05-18T00:38:04Z</time>
      </trkpt>
      <trkpt lat="50.49692" lon="3.64136">
        <ele>54</ele>
        <time>2023-05-18T00:38:07Z</time>
      </trkpt>
      <trkpt lat="50.49821" lon="3.63928">
        <ele>57</ele>
        <time>2023-05-18T00:38:50Z</time>
      </trkpt>
      <trkpt lat="50.49831" lon="3.63913">
        <ele>57</ele>
        <time>2023-05-18T00:38:54Z</time>
      </trkpt>
      <trkpt lat="50.49853" lon="3.63902">
        <ele>55</ele>
        <time>2023-05-18T00:38:59Z</time>
      </trkpt>
      <trkpt lat="50.49856" lon="3.63894">
        <ele>55</ele>
        <time>2023-05-18T00:39:00Z</time>
      </trkpt>
      <trkpt lat="50.49856" lon="3.6388">
        <ele>55</ele>
        <time>2023-05-18T00:39:02Z</time>
      </trkpt>
      <trkpt lat="50.49846" lon="3.63852">
        <ele>56</ele>
        <time>2023-05-18T00:39:07Z</time>
      </trkpt>
      <trkpt lat="50.49873" lon="3.63874">
        <ele>54</ele>
        <time>2023-05-18T00:39:14Z</time>
      </trkpt>
      <trkpt lat="50.49914" lon="3.63848">
        <ele>52</ele>
        <time>2023-05-18T00:39:25Z</time>
      </trkpt>
      <trkpt lat="50.49947" lon="3.63813">
        <ele>48</ele>
        <time>2023-05-18T00:39:34Z</time>
      </trkpt>
      <trkpt lat="50.49989" lon="3.63726">
        <ele>46</ele>
        <time>2023-05-18T00:39:50Z</time>
      </trkpt>
      <trkpt lat="50.49991" lon="3.63771">
        <ele>45</ele>
        <time>2023-05-18T00:39:57Z</time>
      </trkpt>
      <trkpt lat="50.49941" lon="3.6385">
        <ele>49</ele>
        <time>2023-05-18T00:40:13Z</time>
      </trkpt>
      <trkpt lat="50.49904" lon="3.63901">
        <ele>51</ele>
        <time>2023-05-18T00:40:25Z</time>
      </trkpt>
      <trkpt lat="50.49848" lon="3.63971">
        <ele>51</ele>
        <time>2023-05-18T00:40:42Z</time>
      </trkpt>
      <trkpt lat="50.49731" lon="3.64153">
        <ele>51</ele>
        <time>2023-05-18T00:41:20Z</time>
      </trkpt>
      <trkpt lat="50.4971" lon="3.64196">
        <ele>51</ele>
        <time>2023-05-18T00:41:28Z</time>
      </trkpt>
      <trkpt lat="50.49629" lon="3.6434">
        <ele>45</ele>
        <time>2023-05-18T00:41:57Z</time>
      </trkpt>
      <trkpt lat="50.49625" lon="3.64359">
        <ele>45</ele>
        <time>2023-05-18T00:42:00Z</time>
      </trkpt>
      <trkpt lat="50.49575" lon="3.64456">
        <ele>43</ele>
        <time>2023-05-18T00:42:18Z</time>
      </trkpt>
      <trkpt lat="50.49518" lon="3.64612">
        <ele>42</ele>
        <time>2023-05-18T00:42:45Z</time>
      </trkpt>
      <trkpt lat="50.4945" lon="3.64784">
        <ele>38</ele>
        <time>2023-05-18T00:43:15Z</time>
      </trkpt>
      <trkpt lat="50.49433" lon="3.64842">
        <ele>37</ele>
        <time>2023-05-18T00:43:24Z</time>
      </trkpt>
      <trkpt lat="50.49424" lon="3.64897">
        <ele>38</ele>
        <time>2023-05-18T00:43:33Z</time>
      </trkpt>
      <trkpt lat="50.49279" lon="3.65382">
        <ele>34</ele>
        <time>2023-05-18T00:44:53Z</time>
      </trkpt>
      <trkpt lat="50.49136" lon="3.65822">
        <ele>28</ele>
        <time>2023-05-18T00:46:06Z</time>
      </trkpt>
      <trkpt lat="50.49095" lon="3.65902">
        <ele>30</ele>
        <time>2023-05-18T00:46:21Z</time>
      </trkpt>
      <trkpt lat="50.49053" lon="3.65969">
        <ele>31</ele>
        <time>2023-05-18T00:46:35Z</time>
      </trkpt>
      <trkpt lat="50.49077" lon="3.66033">
        <ele>32</ele>
        <time>2023-05-18T00:46:46Z</time>
      </trkpt>
      <trkpt lat="50.49074" lon="3.66067">
        <ele>33</ele>
        <time>2023-05-18T00:46:51Z</time>
      </trkpt>
      <trkpt lat="50.49024" lon="3.66226">
        <ele>35</ele>
        <time>2023-05-18T00:47:18Z</time>
      </trkpt>
      <trkpt lat="50.48999" lon="3.66207">
        <ele>35</ele>
        <time>2023-05-18T00:47:24Z</time>
      </trkpt>
      <trkpt lat="50.48974" lon="3.66165">
        <ele>34</ele>
        <time>2023-05-18T00:47:33Z</time>
      </trkpt>
      <trkpt lat="50.48969" lon="3.66129">
        <ele>35</ele>
        <time>2023-05-18T00:47:38Z</time>
      </trkpt>
      <trkpt lat="50.48966" lon="3.66124">
        <ele>35</ele>
        <time>2023-05-18T00:47:39Z</time>
      </trkpt>
      <trkpt lat="50.48879" lon="3.66219">
        <ele>31</ele>
        <time>2023-05-18T00:48:04Z</time>
      </trkpt>
      <trkpt lat="50.48772" lon="3.66341">
        <ele>30</ele>
        <time>2023-05-18T00:48:35Z</time>
      </trkpt>
      <trkpt lat="50.48766" lon="3.66342">
        <ele>30</ele>
        <time>2023-05-18T00:48:36Z</time>
      </trkpt>
      <trkpt lat="50.48742" lon="3.66365">
        <ele>30</ele>
        <time>2023-05-18T00:48:43Z</time>
      </trkpt>
      <trkpt lat="50.48726" lon="3.66396">
        <ele>30</ele>
        <time>2023-05-18T00:48:49Z</time>
      </trkpt>
      <trkpt lat="50.48483" lon="3.66678">
        <ele>30</ele>
        <time>2023-05-18T00:49:59Z</time>
      </trkpt>
      <trkpt lat="50.48463" lon="3.66692">
        <ele>30</ele>
        <time>2023-05-18T00:50:04Z</time>
      </trkpt>
      <trkpt lat="50.48428" lon="3.6674">
        <ele>29</ele>
        <time>2023-05-18T00:50:15Z</time>
      </trkpt>
      <trkpt lat="50.48258" lon="3.66943">
        <ele>24</ele>
        <time>2023-05-18T00:51:05Z</time>
      </trkpt>
      <trkpt lat="50.48196" lon="3.67012">
        <ele>26</ele>
        <time>2023-05-18T00:51:23Z</time>
      </trkpt>
      <trkpt lat="50.48173" lon="3.67021">
        <ele>26</ele>
        <time>2023-05-18T00:51:28Z</time>
      </trkpt>
      <trkpt lat="50.48161" lon="3.67035">
        <ele>26</ele>
        <time>2023-05-18T00:51:32Z</time>
      </trkpt>
      <trkpt lat="50.48137" lon="3.67078">
        <ele>27</ele>
        <time>2023-05-18T00:51:40Z</time>
      </trkpt>
      <trkpt lat="50.48116" lon="3.67104">
        <ele>27</ele>
        <time>2023-05-18T00:51:47Z</time>
      </trkpt>
      <trkpt lat="50.4797" lon="3.67273">
        <ele>23</ele>
        <time>2023-05-18T00:52:29Z</time>
      </trkpt>
      <trkpt lat="50.47893" lon="3.67357">
        <ele>23</ele>
        <time>2023-05-18T00:52:51Z</time>
      </trkpt>
      <trkpt lat="50.47884" lon="3.67358">
        <ele>22</ele>
        <time>2023-05-18T00:52:53Z</time>
      </trkpt>
      <trkpt lat="50.47872" lon="3.67368">
        <ele>22</ele>
        <time>2023-05-18T00:52:56Z</time>
      </trkpt>
      <trkpt lat="50.47849" lon="3.67406">
        <ele>22</ele>
        <time>2023-05-18T00:53:04Z</time>
      </trkpt>
      <trkpt lat="50.47706" lon="3.67578">
        <ele>20</ele>
        <time>2023-05-18T00:53:46Z</time>
      </trkpt>
      <trkpt lat="50.47697" lon="3.67583">
        <ele>20</ele>
        <time>2023-05-18T00:53:48Z</time>
      </trkpt>
      <trkpt lat="50.47684" lon="3.67601">
        <ele>20</ele>
        <time>2023-05-18T00:53:52Z</time>
      </trkpt>
      <trkpt lat="50.47471" lon="3.67847">
        <ele>24</ele>
        <time>2023-05-18T00:54:54Z</time>
      </trkpt>
      <trkpt lat="50.47354" lon="3.67977">
        <ele>24</ele>
        <time>2023-05-18T00:55:27Z</time>
      </trkpt>
      <trkpt lat="50.47338" lon="3.68019">
        <ele>24</ele>
        <time>2023-05-18T00:55:35Z</time>
      </trkpt>
      <trkpt lat="50.47313" lon="3.68143">
        <ele>27</ele>
        <time>2023-05-18T00:55:54Z</time>
      </trkpt>
      <trkpt lat="50.47317" lon="3.6822">
        <ele>27</ele>
        <time>2023-05-18T00:56:05Z</time>
      </trkpt>
      <trkpt lat="50.47362" lon="3.68347">
        <ele>24</ele>
        <time>2023-05-18T00:56:27Z</time>
      </trkpt>
      <trkpt lat="50.47386" lon="3.68402">
        <ele>25</ele>
        <time>2023-05-18T00:56:37Z</time>
      </trkpt>
      <trkpt lat="50.47402" lon="3.68416">
        <ele>26</ele>
        <time>2023-05-18T00:56:41Z</time>
      </trkpt>
      <trkpt lat="50.47419" lon="3.68422">
        <ele>26</ele>
        <time>2023-05-18T00:56:45Z</time>
      </trkpt>
      <trkpt lat="50.47425" lon="3.68441">
        <ele>26</ele>
        <time>2023-05-18T00:56:49Z</time>
      </trkpt>
      <trkpt lat="50.47441" lon="3.68459">
        <ele>25</ele>
        <time>2023-05-18T00:56:53Z</time>
      </trkpt>
      <trkpt lat="50.47462" lon="3.68457">
        <ele>24</ele>
        <time>2023-05-18T00:56:58Z</time>
      </trkpt>
      <trkpt lat="50.47472" lon="3.68462">
        <ele>24</ele>
        <time>2023-05-18T00:57:00Z</time>
      </trkpt>
      <trkpt lat="50.47431" lon="3.68494">
        <ele>27</ele>
        <time>2023-05-18T00:57:11Z</time>
      </trkpt>
      <trkpt lat="50.47365" lon="3.68555">
        <ele>26</ele>
        <time>2023-05-18T00:57:29Z</time>
      </trkpt>
      <trkpt lat="50.47324" lon="3.68601">
        <ele>24</ele>
        <time>2023-05-18T00:57:41Z</time>
      </trkpt>
      <trkpt lat="50.47301" lon="3.68672">
        <ele>23</ele>
        <time>2023-05-18T00:57:53Z</time>
      </trkpt>
      <trkpt lat="50.47256" lon="3.689">
        <ele>18</ele>
        <time>2023-05-18T00:58:28Z</time>
      </trkpt>
      <trkpt lat="50.47341" lon="3.68959">
        <ele>19</ele>
        <time>2023-05-18T00:58:50Z</time>
      </trkpt>
      <trkpt lat="50.47373" lon="3.68984">
        <ele>20</ele>
        <time>2023-05-18T00:58:58Z</time>
      </trkpt>
      <trkpt lat="50.47416" lon="3.69021">
        <ele>22</ele>
        <time>2023-05-18T00:59:10Z</time>
      </trkpt>
      <trkpt lat="50.47497" lon="3.69098">
        <ele>22</ele>
        <time>2023-05-18T00:59:32Z</time>
      </trkpt>
      <trkpt lat="50.4752" lon="3.69174">
        <ele>22</ele>
        <time>2023-05-18T00:59:44Z</time>
      </trkpt>
      <trkpt lat="50.47537" lon="3.6919">
        <ele>22</ele>
        <time>2023-05-18T00:59:49Z</time>
      </trkpt>
      <trkpt lat="50.47552" lon="3.6919">
        <ele>22</ele>
        <time>2023-05-18T00:59:52Z</time>
      </trkpt>
      <trkpt lat="50.47564" lon="3.6917">
        <ele>21</ele>
        <time>2023-05-18T00:59:56Z</time>
      </trkpt>
      <trkpt lat="50.47572" lon="3.69181">
        <ele>21</ele>
        <time>2023-05-18T00:59:59Z</time>
      </trkpt>
      <trkpt lat="50.47583" lon="3.69204">
        <ele>21</ele>
        <time>2023-05-18T01:00:03Z</time>
      </trkpt>
      <trkpt lat="50.47589" lon="3.69237">
        <ele>22</ele>
        <time>2023-05-18T01:00:08Z</time>
      </trkpt>
      <trkpt lat="50.47609" lon="3.69309">
        <ele>23</ele>
        <time>2023-05-18T01:00:20Z</time>
      </trkpt>
      <trkpt lat="50.47614" lon="3.69342">
        <ele>23</ele>
        <time>2023-05-18T01:00:25Z</time>
      </trkpt>
      <trkpt lat="50.47618" lon="3.69405">
        <ele>24</ele>
        <time>2023-05-18T01:00:34Z</time>
      </trkpt>
      <trkpt lat="50.47707" lon="3.69406">
        <ele>25</ele>
        <time>2023-05-18T01:00:55Z</time>
      </trkpt>
      <trkpt lat="50.47824" lon="3.69372">
        <ele>26</ele>
        <time>2023-05-18T01:01:23Z</time>
      </trkpt>
      <trkpt lat="50.47828" lon="3.69452">
        <ele>26</ele>
        <time>2023-05-18T01:01:35Z</time>
      </trkpt>
      <trkpt lat="50.47831" lon="3.6946">
        <ele>26</ele>
        <time>2023-05-18T01:01:36Z</time>
      </trkpt>
      <trkpt lat="50.47859" lon="3.69473">
        <ele>26</ele>
        <time>2023-05-18T01:01:43Z</time>
      </trkpt>
      <trkpt lat="50.47891" lon="3.69503">
        <ele>26</ele>
        <time>2023-05-18T01:01:52Z</time>
      </trkpt>
      <trkpt lat="50.47926" lon="3.6957">
        <ele>28</ele>
        <time>2023-05-18T01:02:05Z</time>
      </trkpt>
      <trkpt lat="50.47969" lon="3.69623">
        <ele>29</ele>
        <time>2023-05-18T01:02:17Z</time>
      </trkpt>
      <trkpt lat="50.47979" lon="3.69601">
        <ele>30</ele>
        <time>2023-05-18T01:02:21Z</time>
      </trkpt>
      <trkpt lat="50.48009" lon="3.69667">
        <ele>30</ele>
        <time>2023-05-18T01:02:34Z</time>
      </trkpt>
      <trkpt lat="50.48022" lon="3.69703">
        <ele>30</ele>
        <time>2023-05-18T01:02:40Z</time>
      </trkpt>
      <trkpt lat="50.48024" lon="3.69727">
        <ele>29</ele>
        <time>2023-05-18T01:02:43Z</time>
      </trkpt>
      <trkpt lat="50.48012" lon="3.69801">
        <ele>27</ele>
        <time>2023-05-18T01:02:55Z</time>
      </trkpt>
      <trkpt lat="50.47996" lon="3.69961">
        <ele>27</ele>
        <time>2023-05-18T01:03:19Z</time>
      </trkpt>
      <trkpt lat="50.48002" lon="3.70026">
        <ele>28</ele>
        <time>2023-05-18T01:03:28Z</time>
      </trkpt>
      <trkpt lat="50.48011" lon="3.7008">
        <ele>30</ele>
        <time>2023-05-18T01:03:37Z</time>
      </trkpt>
      <trkpt lat="50.48025" lon="3.70143">
        <ele>30</ele>
        <time>2023-05-18T01:03:47Z</time>
      </trkpt>
      <trkpt lat="50.47935" lon="3.70271">
        <ele>29</ele>
        <time>2023-05-18T01:04:15Z</time>
      </trkpt>
      <trkpt lat="50.4792" lon="3.70302">
        <ele>30</ele>
        <time>2023-05-18T01:04:21Z</time>
      </trkpt>
      <trkpt lat="50.47893" lon="3.70342">
        <ele>32</ele>
        <time>2023-05-18T01:04:29Z</time>
      </trkpt>
      <trkpt lat="50.47697" lon="3.70614">
        <ele>27</ele>
        <time>2023-05-18T01:05:31Z</time>
      </trkpt>
      <trkpt lat="50.4764" lon="3.70663">
        <ele>25</ele>
        <time>2023-05-18T01:05:46Z</time>
      </trkpt>
      <trkpt lat="50.47549" lon="3.70733">
        <ele>24</ele>
        <time>2023-05-18T01:06:09Z</time>
      </trkpt>
      <trkpt lat="50.47538" lon="3.70731">
        <ele>24</ele>
        <time>2023-05-18T01:06:12Z</time>
      </trkpt>
      <trkpt lat="50.47531" lon="3.70759">
        <ele>24</ele>
        <time>2023-05-18T01:06:16Z</time>
      </trkpt>
      <trkpt lat="50.4751" lon="3.70791">
        <ele>24</ele>
        <time>2023-05-18T01:06:23Z</time>
      </trkpt>
      <trkpt lat="50.47494" lon="3.7084">
        <ele>23</ele>
        <time>2023-05-18T01:06:31Z</time>
      </trkpt>
      <trkpt lat="50.47499" lon="3.7087">
        <ele>23</ele>
        <time>2023-05-18T01:06:36Z</time>
      </trkpt>
      <trkpt lat="50.47469" lon="3.70902">
        <ele>21</ele>
        <time>2023-05-18T01:06:45Z</time>
      </trkpt>
      <trkpt lat="50.47471" lon="3.70932">
        <ele>21</ele>
        <time>2023-05-18T01:06:49Z</time>
      </trkpt>
      <trkpt lat="50.47494" lon="3.70964">
        <ele>22</ele>
        <time>2023-05-18T01:06:56Z</time>
      </trkpt>
      <trkpt lat="50.47509" lon="3.70957">
        <ele>23</ele>
        <time>2023-05-18T01:07:00Z</time>
      </trkpt>
      <trkpt lat="50.4757" lon="3.70853">
        <ele>26</ele>
        <time>2023-05-18T01:07:21Z</time>
      </trkpt>
      <trkpt lat="50.47579" lon="3.70846">
        <ele>27</ele>
        <time>2023-05-18T01:07:23Z</time>
      </trkpt>
      <trkpt lat="50.4759" lon="3.70849">
        <ele>27</ele>
        <time>2023-05-18T01:07:26Z</time>
      </trkpt>
      <trkpt lat="50.47597" lon="3.70858">
        <ele>27</ele>
        <time>2023-05-18T01:07:28Z</time>
      </trkpt>
      <trkpt lat="50.47602" lon="3.70886">
        <ele>27</ele>
        <time>2023-05-18T01:07:32Z</time>
      </trkpt>
      <trkpt lat="50.47617" lon="3.70874">
        <ele>28</ele>
        <time>2023-05-18T01:07:36Z</time>
      </trkpt>
      <trkpt lat="50.47632" lon="3.7087">
        <ele>28</ele>
        <time>2023-05-18T01:07:40Z</time>
      </trkpt>
      <trkpt lat="50.47648" lon="3.70873">
        <ele>29</ele>
        <time>2023-05-18T01:07:43Z</time>
      </trkpt>
      <trkpt lat="50.47781" lon="3.71009">
        <ele>30</ele>
        <time>2023-05-18T01:08:21Z</time>
      </trkpt>
      <trkpt lat="50.47798" lon="3.71019">
        <ele>31</ele>
        <time>2023-05-18T01:08:25Z</time>
      </trkpt>
      <trkpt lat="50.47918" lon="3.70946">
        <ele>36</ele>
        <time>2023-05-18T01:08:55Z</time>
      </trkpt>
      <trkpt lat="50.47928" lon="3.70945">
        <ele>36</ele>
        <time>2023-05-18T01:08:57Z</time>
      </trkpt>
      <trkpt lat="50.47935" lon="3.70946">
        <ele>36</ele>
        <time>2023-05-18T01:08:59Z</time>
      </trkpt>
      <trkpt lat="50.47951" lon="3.70956">
        <ele>36</ele>
        <time>2023-05-18T01:09:03Z</time>
      </trkpt>
      <trkpt lat="50.48042" lon="3.71046">
        <ele>37</ele>
        <time>2023-05-18T01:09:28Z</time>
      </trkpt>
      <trkpt lat="50.48086" lon="3.70991">
        <ele>36</ele>
        <time>2023-05-18T01:09:41Z</time>
      </trkpt>
      <trkpt lat="50.48075" lon="3.70825">
        <ele>43</ele>
        <time>2023-05-18T01:10:06Z</time>
      </trkpt>
      <trkpt lat="50.48075" lon="3.70774">
        <ele>45</ele>
        <time>2023-05-18T01:10:13Z</time>
      </trkpt>
      <trkpt lat="50.48042" lon="3.70532">
        <ele>38</ele>
        <time>2023-05-18T01:10:50Z</time>
      </trkpt>
      <trkpt lat="50.48011" lon="3.70479">
        <ele>37</ele>
        <time>2023-05-18T01:11:01Z</time>
      </trkpt>
      <trkpt lat="50.4796" lon="3.70418">
        <ele>34</ele>
        <time>2023-05-18T01:11:16Z</time>
      </trkpt>
      <trkpt lat="50.47954" lon="3.70347">
        <ele>31</ele>
        <time>2023-05-18T01:11:27Z</time>
      </trkpt>
      <trkpt lat="50.47977" lon="3.703">
        <ele>30</ele>
        <time>2023-05-18T01:11:35Z</time>
      </trkpt>
      <trkpt lat="50.47981" lon="3.7031">
        <ele>30</ele>
        <time>2023-05-18T01:11:37Z</time>
      </trkpt>
      <trkpt lat="50.4799" lon="3.70313">
        <ele>29</ele>
        <time>2023-05-18T01:11:39Z</time>
      </trkpt>
      <trkpt lat="50.4802" lon="3.70292">
        <ele>29</ele>
        <time>2023-05-18T01:11:47Z</time>
      </trkpt>
      <trkpt lat="50.48109" lon="3.70341">
        <ele>29</ele>
        <time>2023-05-18T01:12:09Z</time>
      </trkpt>
      <trkpt lat="50.48158" lon="3.70394">
        <ele>30</ele>
        <time>2023-05-18T01:12:23Z</time>
      </trkpt>
      <trkpt lat="50.48339" lon="3.70604">
        <ele>35</ele>
        <time>2023-05-18T01:13:15Z</time>
      </trkpt>
      <trkpt lat="50.48461" lon="3.70289">
        <ele>37</ele>
        <time>2023-05-18T01:14:10Z</time>
      </trkpt>
      <trkpt lat="50.48484" lon="3.70239">
        <ele>37</ele>
        <time>2023-05-18T01:14:19Z</time>
      </trkpt>
      <trkpt lat="50.48523" lon="3.70118">
        <ele>39</ele>
        <time>2023-05-18T01:14:40Z</time>
      </trkpt>
      <trkpt lat="50.4852" lon="3.70094">
        <ele>40</ele>
        <time>2023-05-18T01:14:43Z</time>
      </trkpt>
      <trkpt lat="50.48526" lon="3.70067">
        <ele>40</ele>
        <time>2023-05-18T01:14:47Z</time>
      </trkpt>
      <trkpt lat="50.48607" lon="3.70135">
        <ele>40</ele>
        <time>2023-05-18T01:15:09Z</time>
      </trkpt>
      <trkpt lat="50.48584" lon="3.70198">
        <ele>38</ele>
        <time>2023-05-18T01:15:20Z</time>
      </trkpt>
      <trkpt lat="50.48758" lon="3.70249">
        <ele>44</ele>
        <time>2023-05-18T01:16:01Z</time>
      </trkpt>
      <trkpt lat="50.49156" lon="3.70528">
        <ele>62</ele>
        <time>2023-05-18T01:17:43Z</time>
      </trkpt>
      <trkpt lat="50.49181" lon="3.70864">
        <ele>57</ele>
        <time>2023-05-18T01:18:33Z</time>
      </trkpt>
      <trkpt lat="50.49229" lon="3.70929">
        <ele>58</ele>
        <time>2023-05-18T01:18:48Z</time>
      </trkpt>
      <trkpt lat="50.49244" lon="3.70985">
        <ele>55</ele>
        <time>2023-05-18T01:18:57Z</time>
      </trkpt>
      <trkpt lat="50.49331" lon="3.71012">
        <ele>61</ele>
        <time>2023-05-18T01:19:18Z</time>
      </trkpt>
      <trkpt lat="50.49371" lon="3.70997">
        <ele>64</ele>
        <time>2023-05-18T01:19:27Z</time>
      </trkpt>
      <trkpt lat="50.49412" lon="3.70947">
        <ele>65</ele>
        <time>2023-05-18T01:19:39Z</time>
      </trkpt>
      <trkpt lat="50.49506" lon="3.70797">
        <ele>66</ele>
        <time>2023-05-18T01:20:11Z</time>
      </trkpt>
      <trkpt lat="50.49634" lon="3.70872">
        <ele>68</ele>
        <time>2023-05-18T01:20:42Z</time>
      </trkpt>
      <trkpt lat="50.49726" lon="3.70938">
        <ele>69</ele>
        <time>2023-05-18T01:21:06Z</time>
      </trkpt>
      <trkpt lat="50.49771" lon="3.70983">
        <ele>69</ele>
        <time>2023-05-18T01:21:19Z</time>
      </trkpt>
      <trkpt lat="50.49798" lon="3.71015">
        <ele>69</ele>
        <time>2023-05-18T01:21:26Z</time>
      </trkpt>
      <trkpt lat="50.49714" lon="3.71206">
        <ele>68</ele>
        <time>2023-05-18T01:22:01Z</time>
      </trkpt>
      <trkpt lat="50.49692" lon="3.71201">
        <ele>68</ele>
        <time>2023-05-18T01:22:06Z</time>
      </trkpt>
      <trkpt lat="50.49701" lon="3.71238">
        <ele>67</ele>
        <time>2023-05-18T01:22:12Z</time>
      </trkpt>
      <trkpt lat="50.4956" lon="3.71537">
        <ele>72</ele>
        <time>2023-05-18T01:23:07Z</time>
      </trkpt>
      <trkpt lat="50.49483" lon="3.71225">
        <ele>72</ele>
        <time>2023-05-18T01:23:57Z</time>
      </trkpt>
      <trkpt lat="50.4946" lon="3.71261">
        <ele>73</ele>
        <time>2023-05-18T01:24:05Z</time>
      </trkpt>
      <trkpt lat="50.49448" lon="3.71293">
        <ele>74</ele>
        <time>2023-05-18T01:24:10Z</time>
      </trkpt>
      <trkpt lat="50.49442" lon="3.71349">
        <ele>75</ele>
        <time>2023-05-18T01:24:19Z</time>
      </trkpt>
      <trkpt lat="50.49427" lon="3.71572">
        <ele>75</ele>
        <time>2023-05-18T01:24:52Z</time>
      </trkpt>
      <trkpt lat="50.49415" lon="3.716">
        <ele>75</ele>
        <time>2023-05-18T01:24:57Z</time>
      </trkpt>
      <trkpt lat="50.49421" lon="3.71572">
        <ele>75</ele>
        <time>2023-05-18T01:25:01Z</time>
      </trkpt>
      <trkpt lat="50.4942" lon="3.71554">
        <ele>75</ele>
        <time>2023-05-18T01:25:04Z</time>
      </trkpt>
      <trkpt lat="50.49408" lon="3.71519">
        <ele>76</ele>
        <time>2023-05-18T01:25:10Z</time>
      </trkpt>
      <trkpt lat="50.49383" lon="3.71495">
        <ele>75</ele>
        <time>2023-05-18T01:25:17Z</time>
      </trkpt>
      <trkpt lat="50.4935" lon="3.7148">
        <ele>73</ele>
        <time>2023-05-18T01:25:25Z</time>
      </trkpt>
      <trkpt lat="50.49304" lon="3.71473">
        <ele>71</ele>
        <time>2023-05-18T01:25:35Z</time>
      </trkpt>
      <trkpt lat="50.49273" lon="3.71463">
        <ele>69</ele>
        <time>2023-05-18T01:25:43Z</time>
      </trkpt>
      <trkpt lat="50.49237" lon="3.7144">
        <ele>67</ele>
        <time>2023-05-18T01:25:52Z</time>
      </trkpt>
      <trkpt lat="50.49218" lon="3.71404">
        <ele>64</ele>
        <time>2023-05-18T01:25:59Z</time>
      </trkpt>
      <trkpt lat="50.49216" lon="3.71549">
        <ele>71</ele>
        <time>2023-05-18T01:26:20Z</time>
      </trkpt>
      <trkpt lat="50.49197" lon="3.71604">
        <ele>72</ele>
        <time>2023-05-18T01:26:30Z</time>
      </trkpt>
      <trkpt lat="50.49184" lon="3.71696">
        <ele>76</ele>
        <time>2023-05-18T01:26:44Z</time>
      </trkpt>
      <trkpt lat="50.49184" lon="3.71884">
        <ele>78</ele>
        <time>2023-05-18T01:27:12Z</time>
      </trkpt>
      <trkpt lat="50.48679" lon="3.71861">
        <ele>67</ele>
        <time>2023-05-18T01:29:10Z</time>
      </trkpt>
      <trkpt lat="50.48786" lon="3.72439">
        <ele>62</ele>
        <time>2023-05-18T01:30:39Z</time>
      </trkpt>
      <trkpt lat="50.48812" lon="3.72563">
        <ele>66</ele>
        <time>2023-05-18T01:30:59Z</time>
      </trkpt>
      <trkpt lat="50.48968" lon="3.72885">
        <ele>69</ele>
        <time>2023-05-18T01:31:59Z</time>
      </trkpt>
      <trkpt lat="50.49567" lon="3.72976">
        <ele>75</ele>
        <time>2023-05-18T01:34:19Z</time>
      </trkpt>
      <trkpt lat="50.49571" lon="3.73028">
        <ele>75</ele>
        <time>2023-05-18T01:34:27Z</time>
      </trkpt>
      <trkpt lat="50.49607" lon="3.73111">
        <ele>77</ele>
        <time>2023-05-18T01:34:42Z</time>
      </trkpt>
      <trkpt lat="50.49655" lon="3.73178">
        <ele>82</ele>
        <time>2023-05-18T01:34:57Z</time>
      </trkpt>
      <trkpt lat="50.49698" lon="3.73263">
        <ele>85</ele>
        <time>2023-05-18T01:35:13Z</time>
      </trkpt>
      <trkpt lat="50.49805" lon="3.73436">
        <ele>89</ele>
        <time>2023-05-18T01:35:49Z</time>
      </trkpt>
      <trkpt lat="50.49606" lon="3.73655">
        <ele>85</ele>
        <time>2023-05-18T01:36:46Z</time>
      </trkpt>
      <trkpt lat="50.49474" lon="3.73817">
        <ele>80</ele>
        <time>2023-05-18T01:37:25Z</time>
      </trkpt>
      <trkpt lat="50.49405" lon="3.73898">
        <ele>79</ele>
        <time>2023-05-18T01:37:45Z</time>
      </trkpt>
      <trkpt lat="50.49135" lon="3.74204">
        <ele>71</ele>
        <time>2023-05-18T01:39:03Z</time>
      </trkpt>
      <trkpt lat="50.48917" lon="3.74468">
        <ele>70</ele>
        <time>2023-05-18T01:40:07Z</time>
      </trkpt>
      <trkpt lat="50.48905" lon="3.74483">
        <ele>69</ele>
        <time>2023-05-18T01:40:10Z</time>
      </trkpt>
      <trkpt lat="50.48901" lon="3.74505">
        <ele>67</ele>
        <time>2023-05-18T01:40:14Z</time>
      </trkpt>
      <trkpt lat="50.48865" lon="3.7456">
        <ele>66</ele>
        <time>2023-05-18T01:40:25Z</time>
      </trkpt>
      <trkpt lat="50.48862" lon="3.74583">
        <ele>65</ele>
        <time>2023-05-18T01:40:29Z</time>
      </trkpt>
      <trkpt lat="50.48856" lon="3.746">
        <ele>65</ele>
        <time>2023-05-18T01:40:32Z</time>
      </trkpt>
      <trkpt lat="50.48849" lon="3.74605">
        <ele>65</ele>
        <time>2023-05-18T01:40:34Z</time>
      </trkpt>
      <trkpt lat="50.48853" lon="3.74615">
        <ele>64</ele>
        <time>2023-05-18T01:40:35Z</time>
      </trkpt>
      <trkpt lat="50.4885" lon="3.74625">
        <ele>64</ele>
        <time>2023-05-18T01:40:37Z</time>
      </trkpt>
      <trkpt lat="50.48845" lon="3.74621">
        <ele>65</ele>
        <time>2023-05-18T01:40:38Z</time>
      </trkpt>
      <trkpt lat="50.48841" lon="3.74628">
        <ele>65</ele>
        <time>2023-05-18T01:40:40Z</time>
      </trkpt>
      <trkpt lat="50.48823" lon="3.74638">
        <ele>66</ele>
        <time>2023-05-18T01:40:44Z</time>
      </trkpt>
      <trkpt lat="50.48777" lon="3.74636">
        <ele>69</ele>
        <time>2023-05-18T01:40:55Z</time>
      </trkpt>
      <trkpt lat="50.48627" lon="3.74818">
        <ele>55</ele>
        <time>2023-05-18T01:41:39Z</time>
      </trkpt>
      <trkpt lat="50.48883" lon="3.74965">
        <ele>69</ele>
        <time>2023-05-18T01:42:43Z</time>
      </trkpt>
      <trkpt lat="50.48849" lon="3.74999">
        <ele>69</ele>
        <time>2023-05-18T01:42:52Z</time>
      </trkpt>
      <trkpt lat="50.48834" lon="3.75043">
        <ele>67</ele>
        <time>2023-05-18T01:43:00Z</time>
      </trkpt>
      <trkpt lat="50.4883" lon="3.75105">
        <ele>66</ele>
        <time>2023-05-18T01:43:09Z</time>
      </trkpt>
      <trkpt lat="50.48831" lon="3.75155">
        <ele>65</ele>
        <time>2023-05-18T01:43:16Z</time>
      </trkpt>
      <trkpt lat="50.48828" lon="3.75209">
        <ele>67</ele>
        <time>2023-05-18T01:43:24Z</time>
      </trkpt>
      <trkpt lat="50.48819" lon="3.75259">
        <ele>69</ele>
        <time>2023-05-18T01:43:32Z</time>
      </trkpt>
      <trkpt lat="50.48827" lon="3.75304">
        <ele>71</ele>
        <time>2023-05-18T01:43:39Z</time>
      </trkpt>
      <trkpt lat="50.4882" lon="3.75332">
        <ele>72</ele>
        <time>2023-05-18T01:43:44Z</time>
      </trkpt>
      <trkpt lat="50.48784" lon="3.75373">
        <ele>70</ele>
        <time>2023-05-18T01:43:54Z</time>
      </trkpt>
      <trkpt lat="50.48761" lon="3.75404">
        <ele>69</ele>
        <time>2023-05-18T01:44:01Z</time>
      </trkpt>
      <trkpt lat="50.48752" lon="3.75467">
        <ele>68</ele>
        <time>2023-05-18T01:44:11Z</time>
      </trkpt>
      <trkpt lat="50.4868" lon="3.75835">
        <ele>54</ele>
        <time>2023-05-18T01:45:08Z</time>
      </trkpt>
      <trkpt lat="50.48655" lon="3.7594">
        <ele>52</ele>
        <time>2023-05-18T01:45:25Z</time>
      </trkpt>
      <trkpt lat="50.48625" lon="3.76115">
        <ele>48</ele>
        <time>2023-05-18T01:45:51Z</time>
      </trkpt>
      <trkpt lat="50.48594" lon="3.76324">
        <ele>42</ele>
        <time>2023-05-18T01:46:23Z</time>
      </trkpt>
      <trkpt lat="50.48561" lon="3.76351">
        <ele>42</ele>
        <time>2023-05-18T01:46:32Z</time>
      </trkpt>
      <trkpt lat="50.48537" lon="3.76478">
        <ele>40</ele>
        <time>2023-05-18T01:46:52Z</time>
      </trkpt>
      <trkpt lat="50.48437" lon="3.76406">
        <ele>37</ele>
        <time>2023-05-18T01:47:17Z</time>
      </trkpt>
      <trkpt lat="50.4837" lon="3.76381">
        <ele>39</ele>
        <time>2023-05-18T01:47:33Z</time>
      </trkpt>
      <trkpt lat="50.48307" lon="3.76361">
        <ele>39</ele>
        <time>2023-05-18T01:47:48Z</time>
      </trkpt>
      <trkpt lat="50.48273" lon="3.76359">
        <ele>39</ele>
        <time>2023-05-18T01:47:56Z</time>
      </trkpt>
      <trkpt lat="50.48246" lon="3.7644">
        <ele>39</ele>
        <time>2023-05-18T01:48:10Z</time>
      </trkpt>
      <trkpt lat="50.48295" lon="3.76475">
        <ele>41</ele>
        <time>2023-05-18T01:48:23Z</time>
      </trkpt>
      <trkpt lat="50.48357" lon="3.76549">
        <ele>43</ele>
        <time>2023-05-18T01:48:41Z</time>
      </trkpt>
      <trkpt lat="50.48411" lon="3.76664">
        <ele>49</ele>
        <time>2023-05-18T01:49:02Z</time>
      </trkpt>
      <trkpt lat="50.48493" lon="3.76873">
        <ele>59</ele>
        <time>2023-05-18T01:49:38Z</time>
      </trkpt>
      <trkpt lat="50.48643" lon="3.7701">
        <ele>49</ele>
        <time>2023-05-18T01:50:19Z</time>
      </trkpt>
      <trkpt lat="50.48765" lon="3.77192">
        <ele>46</ele>
        <time>2023-05-18T01:50:58Z</time>
      </trkpt>
      <trkpt lat="50.48791" lon="3.77223">
        <ele>46</ele>
        <time>2023-05-18T01:51:06Z</time>
      </trkpt>
      <trkpt lat="50.48931" lon="3.77323">
        <ele>49</ele>
        <time>2023-05-18T01:51:42Z</time>
      </trkpt>
      <trkpt lat="50.4896" lon="3.77337">
        <ele>51</ele>
        <time>2023-05-18T01:51:49Z</time>
      </trkpt>
      <trkpt lat="50.49054" lon="3.77405">
        <ele>57</ele>
        <time>2023-05-18T01:52:13Z</time>
      </trkpt>
      <trkpt lat="50.49043" lon="3.77155">
        <ele>57</ele>
        <time>2023-05-18T01:52:50Z</time>
      </trkpt>
      <trkpt lat="50.49033" lon="3.77035">
        <ele>55</ele>
        <time>2023-05-18T01:53:08Z</time>
      </trkpt>
      <trkpt lat="50.49129" lon="3.77143">
        <ele>63</ele>
        <time>2023-05-18T01:53:36Z</time>
      </trkpt>
      <trkpt lat="50.4919" lon="3.77178">
        <ele>65</ele>
        <time>2023-05-18T01:53:51Z</time>
      </trkpt>
      <trkpt lat="50.49242" lon="3.77215">
        <ele>72</ele>
        <time>2023-05-18T01:54:04Z</time>
      </trkpt>
      <trkpt lat="50.49285" lon="3.77211">
        <ele>72</ele>
        <time>2023-05-18T01:54:14Z</time>
      </trkpt>
      <trkpt lat="50.49314" lon="3.77215">
        <ele>71</ele>
        <time>2023-05-18T01:54:21Z</time>
      </trkpt>
      <trkpt lat="50.49333" lon="3.77164">
        <ele>73</ele>
        <time>2023-05-18T01:54:30Z</time>
      </trkpt>
      <trkpt lat="50.49366" lon="3.77157">
        <ele>72</ele>
        <time>2023-05-18T01:54:38Z</time>
      </trkpt>
      <trkpt lat="50.4938" lon="3.77055">
        <ele>68</ele>
        <time>2023-05-18T01:54:53Z</time>
      </trkpt>
      <trkpt lat="50.49437" lon="3.76991">
        <ele>63</ele>
        <time>2023-05-18T01:55:10Z</time>
      </trkpt>
      <trkpt lat="50.49448" lon="3.76927">
        <ele>56</ele>
        <time>2023-05-18T01:55:19Z</time>
      </trkpt>
      <trkpt lat="50.49488" lon="3.76906">
        <ele>57</ele>
        <time>2023-05-18T01:55:29Z</time>
      </trkpt>
      <trkpt lat="50.49511" lon="3.76878">
        <ele>58</ele>
        <time>2023-05-18T01:55:36Z</time>
      </trkpt>
      <trkpt lat="50.49511" lon="3.76853">
        <ele>59</ele>
        <time>2023-05-18T01:55:40Z</time>
      </trkpt>
      <trkpt lat="50.49481" lon="3.76778">
        <ele>60</ele>
        <time>2023-05-18T01:55:53Z</time>
      </trkpt>
      <trkpt lat="50.49524" lon="3.76762">
        <ele>65</ele>
        <time>2023-05-18T01:56:03Z</time>
      </trkpt>
      <trkpt lat="50.49557" lon="3.7676">
        <ele>68</ele>
        <time>2023-05-18T01:56:11Z</time>
      </trkpt>
      <trkpt lat="50.4959" lon="3.76791">
        <ele>68</ele>
        <time>2023-05-18T01:56:20Z</time>
      </trkpt>
      <trkpt lat="50.49618" lon="3.76826">
        <ele>66</ele>
        <time>2023-05-18T01:56:28Z</time>
      </trkpt>
      <trkpt lat="50.49624" lon="3.76524">
        <ele>66</ele>
        <time>2023-05-18T01:57:13Z</time>
      </trkpt>
      <trkpt lat="50.49624" lon="3.7623">
        <ele>67</ele>
        <time>2023-05-18T01:57:57Z</time>
      </trkpt>
      <trkpt lat="50.49619" lon="3.75896">
        <ele>68</ele>
        <time>2023-05-18T01:58:47Z</time>
      </trkpt>
      <trkpt lat="50.4962" lon="3.75362">
        <ele>72</ele>
        <time>2023-05-18T02:00:06Z</time>
      </trkpt>
      <trkpt lat="50.49618" lon="3.75289">
        <ele>72</ele>
        <time>2023-05-18T02:00:17Z</time>
      </trkpt>
      <trkpt lat="50.49649" lon="3.75289">
        <ele>73</ele>
        <time>2023-05-18T02:00:24Z</time>
      </trkpt>
      <trkpt lat="50.49681" lon="3.75298">
        <ele>75</ele>
        <time>2023-05-18T02:00:32Z</time>
      </trkpt>
      <trkpt lat="50.49927" lon="3.74969">
        <ele>90</ele>
        <time>2023-05-18T02:01:47Z</time>
      </trkpt>
      <trkpt lat="50.49892" lon="3.74853">
        <ele>89</ele>
        <time>2023-05-18T02:02:06Z</time>
      </trkpt>
      <trkpt lat="50.49878" lon="3.74699">
        <ele>85</ele>
        <time>2023-05-18T02:02:29Z</time>
      </trkpt>
      <trkpt lat="50.49856" lon="3.74644">
        <ele>83</ele>
        <time>2023-05-18T02:02:39Z</time>
      </trkpt>
      <trkpt lat="50.49844" lon="3.74583">
        <ele>88</ele>
        <time>2023-05-18T02:02:48Z</time>
      </trkpt>
      <trkpt lat="50.49757" lon="3.74314">
        <ele>79</ele>
        <time>2023-05-18T02:03:33Z</time>
      </trkpt>
      <trkpt lat="50.49764" lon="3.74275">
        <ele>82</ele>
        <time>2023-05-18T02:03:39Z</time>
      </trkpt>
      <trkpt lat="50.49693" lon="3.74141">
        <ele>79</ele>
        <time>2023-05-18T02:04:05Z</time>
      </trkpt>
      <trkpt lat="50.49639" lon="3.74028">
        <ele>83</ele>
        <time>2023-05-18T02:04:26Z</time>
      </trkpt>
      <trkpt lat="50.49641" lon="3.73941">
        <ele>85</ele>
        <time>2023-05-18T02:04:39Z</time>
      </trkpt>
      <trkpt lat="50.49674" lon="3.73768">
        <ele>84</ele>
        <time>2023-05-18T02:05:06Z</time>
      </trkpt>
      <trkpt lat="50.49762" lon="3.73946">
        <ele>87</ele>
        <time>2023-05-18T02:05:39Z</time>
      </trkpt>
      <trkpt lat="50.49799" lon="3.7401">
        <ele>88</ele>
        <time>2023-05-18T02:05:52Z</time>
      </trkpt>
      <trkpt lat="50.49931" lon="3.74096">
        <ele>91</ele>
        <time>2023-05-18T02:06:26Z</time>
      </trkpt>
      <trkpt lat="50.49958" lon="3.74089">
        <ele>91</ele>
        <time>2023-05-18T02:06:32Z</time>
      </trkpt>
      <trkpt lat="50.50015" lon="3.74088">
        <ele>91</ele>
        <time>2023-05-18T02:06:45Z</time>
      </trkpt>
      <trkpt lat="50.50048" lon="3.74114">
        <ele>91</ele>
        <time>2023-05-18T02:06:54Z</time>
      </trkpt>
      <trkpt lat="50.50059" lon="3.7413">
        <ele>90</ele>
        <time>2023-05-18T02:06:57Z</time>
      </trkpt>
      <trkpt lat="50.50086" lon="3.74146">
        <ele>91</ele>
        <time>2023-05-18T02:07:04Z</time>
      </trkpt>
      <trkpt lat="50.50166" lon="3.7424">
        <ele>92</ele>
        <time>2023-05-18T02:07:27Z</time>
      </trkpt>
      <trkpt lat="50.50185" lon="3.7428">
        <ele>92</ele>
        <time>2023-05-18T02:07:35Z</time>
      </trkpt>
      <trkpt lat="50.50231" lon="3.74307">
        <ele>93</ele>
        <time>2023-05-18T02:07:46Z</time>
      </trkpt>
      <trkpt lat="50.50285" lon="3.7436">
        <ele>95</ele>
        <time>2023-05-18T02:08:01Z</time>
      </trkpt>
      <trkpt lat="50.50379" lon="3.74442">
        <ele>97</ele>
        <time>2023-05-18T02:08:26Z</time>
      </trkpt>
      <trkpt lat="50.50415" lon="3.74485">
        <ele>98</ele>
        <time>2023-05-18T02:08:37Z</time>
      </trkpt>
      <trkpt lat="50.5042" lon="3.74501">
        <ele>98</ele>
        <time>2023-05-18T02:08:39Z</time>
      </trkpt>
      <trkpt lat="50.50435" lon="3.74495">
        <ele>98</ele>
        <time>2023-05-18T02:08:43Z</time>
      </trkpt>
      <trkpt lat="50.50443" lon="3.74479">
        <ele>97</ele>
        <time>2023-05-18T02:08:46Z</time>
      </trkpt>
      <trkpt lat="50.50459" lon="3.74461">
        <ele>97</ele>
        <time>2023-05-18T02:08:51Z</time>
      </trkpt>
      <trkpt lat="50.50515" lon="3.74464">
        <ele>97</ele>
        <time>2023-05-18T02:09:04Z</time>
      </trkpt>
      <trkpt lat="50.50542" lon="3.7444">
        <ele>96</ele>
        <time>2023-05-18T02:09:11Z</time>
      </trkpt>
      <trkpt lat="50.50676" lon="3.74352">
        <ele>93</ele>
        <time>2023-05-18T02:09:45Z</time>
      </trkpt>
      <trkpt lat="50.5076" lon="3.74278">
        <ele>90</ele>
        <time>2023-05-18T02:10:07Z</time>
      </trkpt>
      <trkpt lat="50.50824" lon="3.74227">
        <ele>89</ele>
        <time>2023-05-18T02:10:24Z</time>
      </trkpt>
      <trkpt lat="50.50739" lon="3.73845">
        <ele>90</ele>
        <time>2023-05-18T02:11:24Z</time>
      </trkpt>
      <trkpt lat="50.50785" lon="3.73714">
        <ele>90</ele>
        <time>2023-05-18T02:11:47Z</time>
      </trkpt>
      <trkpt lat="50.5084" lon="3.73591">
        <ele>89</ele>
        <time>2023-05-18T02:12:09Z</time>
      </trkpt>
      <trkpt lat="50.50914" lon="3.73416">
        <ele>88</ele>
        <time>2023-05-18T02:12:40Z</time>
      </trkpt>
      <trkpt lat="50.51022" lon="3.73193">
        <ele>78</ele>
        <time>2023-05-18T02:13:22Z</time>
      </trkpt>
      <trkpt lat="50.51355" lon="3.7324">
        <ele>76</ele>
        <time>2023-05-18T02:14:40Z</time>
      </trkpt>
      <trkpt lat="50.51435" lon="3.73766">
        <ele>77</ele>
        <time>2023-05-18T02:16:00Z</time>
      </trkpt>
      <trkpt lat="50.51752" lon="3.73875">
        <ele>80</ele>
        <time>2023-05-18T02:17:16Z</time>
      </trkpt>
      <trkpt lat="50.51906" lon="3.73925">
        <ele>78</ele>
        <time>2023-05-18T02:17:53Z</time>
      </trkpt>
      <trkpt lat="50.52228" lon="3.73812">
        <ele>75</ele>
        <time>2023-05-18T02:19:10Z</time>
      </trkpt>
      <trkpt lat="50.52163" lon="3.74014">
        <ele>76</ele>
        <time>2023-05-18T02:19:43Z</time>
      </trkpt>
      <trkpt lat="50.52132" lon="3.74102">
        <ele>76</ele>
        <time>2023-05-18T02:19:58Z</time>
      </trkpt>
      <trkpt lat="50.52117" lon="3.74242">
        <ele>75</ele>
        <time>2023-05-18T02:20:19Z</time>
      </trkpt>
      <trkpt lat="50.52046" lon="3.74427">
        <ele>79</ele>
        <time>2023-05-18T02:20:51Z</time>
      </trkpt>
      <trkpt lat="50.51983" lon="3.74539">
        <ele>80</ele>
        <time>2023-05-18T02:21:14Z</time>
      </trkpt>
      <trkpt lat="50.51961" lon="3.74549">
        <ele>79</ele>
        <time>2023-05-18T02:21:19Z</time>
      </trkpt>
      <trkpt lat="50.52216" lon="3.74528">
        <ele>81</ele>
        <time>2023-05-18T02:22:19Z</time>
      </trkpt>
      <trkpt lat="50.52288" lon="3.74528">
        <ele>81</ele>
        <time>2023-05-18T02:22:35Z</time>
      </trkpt>
      <trkpt lat="50.52339" lon="3.74522">
        <ele>79</ele>
        <time>2023-05-18T02:22:47Z</time>
      </trkpt>
      <trkpt lat="50.5254" lon="3.74515">
        <ele>68</ele>
        <time>2023-05-18T02:23:34Z</time>
      </trkpt>
      <trkpt lat="50.5256" lon="3.74479">
        <ele>66</ele>
        <time>2023-05-18T02:23:41Z</time>
      </trkpt>
      <trkpt lat="50.52578" lon="3.74458">
        <ele>63</ele>
        <time>2023-05-18T02:23:47Z</time>
      </trkpt>
      <trkpt lat="50.52611" lon="3.74395">
        <ele>63</ele>
        <time>2023-05-18T02:23:59Z</time>
      </trkpt>
      <trkpt lat="50.52834" lon="3.73952">
        <ele>65</ele>
        <time>2023-05-18T02:25:23Z</time>
      </trkpt>
      <trkpt lat="50.52812" lon="3.73869">
        <ele>70</ele>
        <time>2023-05-18T02:25:36Z</time>
      </trkpt>
      <trkpt lat="50.52787" lon="3.73753">
        <ele>71</ele>
        <time>2023-05-18T02:25:54Z</time>
      </trkpt>
      <trkpt lat="50.52773" lon="3.73659">
        <ele>66</ele>
        <time>2023-05-18T02:26:08Z</time>
      </trkpt>
      <trkpt lat="50.52737" lon="3.73584">
        <ele>63</ele>
        <time>2023-05-18T02:26:22Z</time>
      </trkpt>
      <trkpt lat="50.52736" lon="3.73567">
        <ele>63</ele>
        <time>2023-05-18T02:26:25Z</time>
      </trkpt>
      <trkpt lat="50.52741" lon="3.73538">
        <ele>63</ele>
        <time>2023-05-18T02:26:29Z</time>
      </trkpt>
      <trkpt lat="50.52752" lon="3.73505">
        <ele>62</ele>
        <time>2023-05-18T02:26:35Z</time>
      </trkpt>
      <trkpt lat="50.52771" lon="3.73473">
        <ele>61</ele>
        <time>2023-05-18T02:26:41Z</time>
      </trkpt>
      <trkpt lat="50.5288" lon="3.73491">
        <ele>60</ele>
        <time>2023-05-18T02:27:07Z</time>
      </trkpt>
      <trkpt lat="50.52922" lon="3.73503">
        <ele>61</ele>
        <time>2023-05-18T02:27:17Z</time>
      </trkpt>
      <trkpt lat="50.5306" lon="3.73522">
        <ele>60</ele>
        <time>2023-05-18T02:27:49Z</time>
      </trkpt>
      <trkpt lat="50.53113" lon="3.73424">
        <ele>59</ele>
        <time>2023-05-18T02:28:08Z</time>
      </trkpt>
      <trkpt lat="50.53064" lon="3.73368">
        <ele>60</ele>
        <time>2023-05-18T02:28:23Z</time>
      </trkpt>
      <trkpt lat="50.53007" lon="3.73288">
        <ele>60</ele>
        <time>2023-05-18T02:28:40Z</time>
      </trkpt>
      <trkpt lat="50.52968" lon="3.73243">
        <ele>59</ele>
        <time>2023-05-18T02:28:52Z</time>
      </trkpt>
      <trkpt lat="50.52888" lon="3.73138">
        <ele>62</ele>
        <time>2023-05-18T02:29:16Z</time>
      </trkpt>
      <trkpt lat="50.52877" lon="3.7314">
        <ele>62</ele>
        <time>2023-05-18T02:29:19Z</time>
      </trkpt>
      <trkpt lat="50.52873" lon="3.73145">
        <ele>62</ele>
        <time>2023-05-18T02:29:20Z</time>
      </trkpt>
      <trkpt lat="50.52853" lon="3.73147">
        <ele>63</ele>
        <time>2023-05-18T02:29:24Z</time>
      </trkpt>
      <trkpt lat="50.52836" lon="3.73128">
        <ele>63</ele>
        <time>2023-05-18T02:29:29Z</time>
      </trkpt>
      <trkpt lat="50.52839" lon="3.73111">
        <ele>63</ele>
        <time>2023-05-18T02:29:32Z</time>
      </trkpt>
      <trkpt lat="50.52831" lon="3.73093">
        <ele>64</ele>
        <time>2023-05-18T02:29:35Z</time>
      </trkpt>
      <trkpt lat="50.52748" lon="3.73007">
        <ele>67</ele>
        <time>2023-05-18T02:29:58Z</time>
      </trkpt>
      <trkpt lat="50.52703" lon="3.72972">
        <ele>66</ele>
        <time>2023-05-18T02:30:10Z</time>
      </trkpt>
      <trkpt lat="50.52667" lon="3.72935">
        <ele>66</ele>
        <time>2023-05-18T02:30:20Z</time>
      </trkpt>
      <trkpt lat="50.52565" lon="3.72877">
        <ele>68</ele>
        <time>2023-05-18T02:30:46Z</time>
      </trkpt>
      <trkpt lat="50.52518" lon="3.72858">
        <ele>68</ele>
        <time>2023-05-18T02:30:57Z</time>
      </trkpt>
      <trkpt lat="50.52442" lon="3.72838">
        <ele>71</ele>
        <time>2023-05-18T02:31:15Z</time>
      </trkpt>
      <trkpt lat="50.52423" lon="3.72817">
        <ele>71</ele>
        <time>2023-05-18T02:31:20Z</time>
      </trkpt>
      <trkpt lat="50.52423" lon="3.728">
        <ele>70</ele>
        <time>2023-05-18T02:31:23Z</time>
      </trkpt>
      <trkpt lat="50.52394" lon="3.72784">
        <ele>70</ele>
        <time>2023-05-18T02:31:30Z</time>
      </trkpt>
      <trkpt lat="50.52257" lon="3.72738">
        <ele>70</ele>
        <time>2023-05-18T02:32:03Z</time>
      </trkpt>
      <trkpt lat="50.5218" lon="3.7272">
        <ele>75</ele>
        <time>2023-05-18T02:32:21Z</time>
      </trkpt>
      <trkpt lat="50.52144" lon="3.72714">
        <ele>76</ele>
        <time>2023-05-18T02:32:29Z</time>
      </trkpt>
      <trkpt lat="50.52097" lon="3.72686">
        <ele>74</ele>
        <time>2023-05-18T02:32:41Z</time>
      </trkpt>
      <trkpt lat="50.52062" lon="3.72689">
        <ele>74</ele>
        <time>2023-05-18T02:32:49Z</time>
      </trkpt>
      <trkpt lat="50.51984" lon="3.72653">
        <ele>70</ele>
        <time>2023-05-18T02:33:08Z</time>
      </trkpt>
      <trkpt lat="50.51968" lon="3.72638">
        <ele>69</ele>
        <time>2023-05-18T02:33:13Z</time>
      </trkpt>
      <trkpt lat="50.51934" lon="3.72618">
        <ele>69</ele>
        <time>2023-05-18T02:33:21Z</time>
      </trkpt>
      <trkpt lat="50.51908" lon="3.72614">
        <ele>69</ele>
        <time>2023-05-18T02:33:27Z</time>
      </trkpt>
      <trkpt lat="50.51857" lon="3.72595">
        <ele>71</ele>
        <time>2023-05-18T02:33:39Z</time>
      </trkpt>
      <trkpt lat="50.51837" lon="3.72598">
        <ele>72</ele>
        <time>2023-05-18T02:33:44Z</time>
      </trkpt>
      <trkpt lat="50.51784" lon="3.72567">
        <ele>73</ele>
        <time>2023-05-18T02:33:57Z</time>
      </trkpt>
      <trkpt lat="50.51713" lon="3.72545">
        <ele>73</ele>
        <time>2023-05-18T02:34:14Z</time>
      </trkpt>
      <trkpt lat="50.51642" lon="3.72533">
        <ele>73</ele>
        <time>2023-05-18T02:34:31Z</time>
      </trkpt>
      <trkpt lat="50.51526" lon="3.72553">
        <ele>72</ele>
        <time>2023-05-18T02:34:58Z</time>
      </trkpt>
      <trkpt lat="50.51527" lon="3.72569">
        <ele>73</ele>
        <time>2023-05-18T02:35:01Z</time>
      </trkpt>
      <trkpt lat="50.51434" lon="3.72584">
        <ele>68</ele>
        <time>2023-05-18T02:35:22Z</time>
      </trkpt>
      <trkpt lat="50.51365" lon="3.72588">
        <ele>67</ele>
        <time>2023-05-18T02:35:38Z</time>
      </trkpt>
      <trkpt lat="50.51285" lon="3.7261">
        <ele>66</ele>
        <time>2023-05-18T02:35:57Z</time>
      </trkpt>
      <trkpt lat="50.51235" lon="3.72708">
        <ele>69</ele>
        <time>2023-05-18T02:36:16Z</time>
      </trkpt>
      <trkpt lat="50.51152" lon="3.72615">
        <ele>66</ele>
        <time>2023-05-18T02:36:40Z</time>
      </trkpt>
      <trkpt lat="50.51059" lon="3.72606">
        <ele>67</ele>
        <time>2023-05-18T02:37:02Z</time>
      </trkpt>
      <trkpt lat="50.51014" lon="3.72598">
        <ele>66</ele>
        <time>2023-05-18T02:37:12Z</time>
      </trkpt>
      <trkpt lat="50.50952" lon="3.7271">
        <ele>72</ele>
        <time>2023-05-18T02:37:34Z</time>
      </trkpt>
      <trkpt lat="50.50913" lon="3.72774">
        <ele>72</ele>
        <time>2023-05-18T02:37:47Z</time>
      </trkpt>
      <trkpt lat="50.50875" lon="3.72777">
        <ele>75</ele>
        <time>2023-05-18T02:37:56Z</time>
      </trkpt>
      <trkpt lat="50.50781" lon="3.72658">
        <ele>73</ele>
        <time>2023-05-18T02:38:25Z</time>
      </trkpt>
      <trkpt lat="50.50768" lon="3.7266">
        <ele>73</ele>
        <time>2023-05-18T02:38:28Z</time>
      </trkpt>
      <trkpt lat="50.50902" lon="3.73175">
        <ele>82</ele>
        <time>2023-05-18T02:39:50Z</time>
      </trkpt>
      <trkpt lat="50.50619" lon="3.73136">
        <ele>85</ele>
        <time>2023-05-18T02:40:57Z</time>
      </trkpt>
      <trkpt lat="50.50135" lon="3.73064">
        <ele>84</ele>
        <time>2023-05-18T02:42:50Z</time>
      </trkpt>
      <trkpt lat="50.49922" lon="3.73028">
        <ele>82</ele>
        <time>2023-05-18T02:43:40Z</time>
      </trkpt>
      <trkpt lat="50.50048" lon="3.72847">
        <ele>78</ele>
        <time>2023-05-18T02:44:20Z</time>
      </trkpt>
      <trkpt lat="50.50235" lon="3.72587">
        <ele>87</ele>
        <time>2023-05-18T02:45:18Z</time>
      </trkpt>
      <trkpt lat="50.50192" lon="3.72447">
        <ele>87</ele>
        <time>2023-05-18T02:45:41Z</time>
      </trkpt>
      <trkpt lat="50.50165" lon="3.72319">
        <ele>86</ele>
        <time>2023-05-18T02:46:01Z</time>
      </trkpt>
      <trkpt lat="50.50226" lon="3.724">
        <ele>85</ele>
        <time>2023-05-18T02:46:20Z</time>
      </trkpt>
      <trkpt lat="50.50369" lon="3.7246">
        <ele>75</ele>
        <time>2023-05-18T02:46:55Z</time>
      </trkpt>
      <trkpt lat="50.50247" lon="3.72324">
        <ele>79</ele>
        <time>2023-05-18T02:47:30Z</time>
      </trkpt>
      <trkpt lat="50.50202" lon="3.72224">
        <ele>79</ele>
        <time>2023-05-18T02:47:48Z</time>
      </trkpt>
      <trkpt lat="50.50203" lon="3.7219">
        <ele>77</ele>
        <time>2023-05-18T02:47:53Z</time>
      </trkpt>
      <trkpt lat="50.50312" lon="3.72133">
        <ele>67</ele>
        <time>2023-05-18T02:48:20Z</time>
      </trkpt>
      <trkpt lat="50.5032" lon="3.72115">
        <ele>66</ele>
        <time>2023-05-18T02:48:23Z</time>
      </trkpt>
      <trkpt lat="50.50196" lon="3.71864">
        <ele>76</ele>
        <time>2023-05-18T02:49:10Z</time>
      </trkpt>
      <trkpt lat="50.50148" lon="3.71676">
        <ele>80</ele>
        <time>2023-05-18T02:49:40Z</time>
      </trkpt>
      <trkpt lat="50.50119" lon="3.71687">
        <ele>81</ele>
        <time>2023-05-18T02:49:47Z</time>
      </trkpt>
      <trkpt lat="50.5005" lon="3.71688">
        <ele>83</ele>
        <time>2023-05-18T02:50:03Z</time>
      </trkpt>
      <trkpt lat="50.49992" lon="3.71692">
        <ele>82</ele>
        <time>2023-05-18T02:50:17Z</time>
      </trkpt>
      <trkpt lat="50.49975" lon="3.71643">
        <ele>81</ele>
        <time>2023-05-18T02:50:25Z</time>
      </trkpt>
      <trkpt lat="50.49928" lon="3.71648">
        <ele>81</ele>
        <time>2023-05-18T02:50:36Z</time>
      </trkpt>
      <trkpt lat="50.49884" lon="3.71689">
        <ele>79</ele>
        <time>2023-05-18T02:50:48Z</time>
      </trkpt>
      <trkpt lat="50.49862" lon="3.71731">
        <ele>80</ele>
        <time>2023-05-18T02:50:56Z</time>
      </trkpt>
      <trkpt lat="50.49886" lon="3.71736">
        <ele>81</ele>
        <time>2023-05-18T02:51:02Z</time>
      </trkpt>
      <trkpt lat="50.49885" lon="3.71821">
        <ele>81</ele>
        <time>2023-05-18T02:51:14Z</time>
      </trkpt>
      <trkpt lat="50.49893" lon="3.7184">
        <ele>81</ele>
        <time>2023-05-18T02:51:18Z</time>
      </trkpt>
      <trkpt lat="50.49898" lon="3.71865">
        <ele>82</ele>
        <time>2023-05-18T02:51:22Z</time>
      </trkpt>
      <trkpt lat="50.49892" lon="3.7189">
        <ele>83</ele>
        <time>2023-05-18T02:51:26Z</time>
      </trkpt>
      <trkpt lat="50.49903" lon="3.71908">
        <ele>83</ele>
        <time>2023-05-18T02:51:29Z</time>
      </trkpt>
      <trkpt lat="50.49877" lon="3.71907">
        <ele>83</ele>
        <time>2023-05-18T02:51:35Z</time>
      </trkpt>
      <trkpt lat="50.49873" lon="3.71946">
        <ele>84</ele>
        <time>2023-05-18T02:51:41Z</time>
      </trkpt>
      <trkpt lat="50.49877" lon="3.71984">
        <ele>84</ele>
        <time>2023-05-18T02:51:47Z</time>
      </trkpt>
      <trkpt lat="50.49887" lon="3.71988">
        <ele>84</ele>
        <time>2023-05-18T02:51:49Z</time>
      </trkpt>
      <trkpt lat="50.49883" lon="3.7204">
        <ele>84</ele>
        <time>2023-05-18T02:51:57Z</time>
      </trkpt>
      <trkpt lat="50.49887" lon="3.7207">
        <ele>83</ele>
        <time>2023-05-18T02:52:02Z</time>
      </trkpt>
      <trkpt lat="50.49887" lon="3.72106">
        <ele>82</ele>
        <time>2023-05-18T02:52:07Z</time>
      </trkpt>
      <trkpt lat="50.49929" lon="3.72109">
        <ele>83</ele>
        <time>2023-05-18T02:52:17Z</time>
      </trkpt>
      <trkpt lat="50.49948" lon="3.72131">
        <ele>83</ele>
        <time>2023-05-18T02:52:22Z</time>
      </trkpt>
      <trkpt lat="50.49973" lon="3.72141">
        <ele>83</ele>
        <time>2023-05-18T02:52:28Z</time>
      </trkpt>
      <trkpt lat="50.50009" lon="3.72208">
        <ele>83</ele>
        <time>2023-05-18T02:52:42Z</time>
      </trkpt>
      <trkpt lat="50.50037" lon="3.72214">
        <ele>84</ele>
        <time>2023-05-18T02:52:48Z</time>
      </trkpt>
      <trkpt lat="50.50047" lon="3.72251">
        <ele>85</ele>
        <time>2023-05-18T02:52:54Z</time>
      </trkpt>
      <trkpt lat="50.50067" lon="3.72276">
        <ele>86</ele>
        <time>2023-05-18T02:53:00Z</time>
      </trkpt>
      <trkpt lat="50.50081" lon="3.72314">
        <ele>87</ele>
        <time>2023-05-18T02:53:07Z</time>
      </trkpt>
      <trkpt lat="50.50081" lon="3.72437">
        <ele>84</ele>
        <time>2023-05-18T02:53:25Z</time>
      </trkpt>
      <trkpt lat="50.5004" lon="3.72492">
        <ele>82</ele>
        <time>2023-05-18T02:53:37Z</time>
      </trkpt>
      <trkpt lat="50.50036" lon="3.72472">
        <ele>82</ele>
        <time>2023-05-18T02:53:41Z</time>
      </trkpt>
      <trkpt lat="50.50024" lon="3.72462">
        <ele>81</ele>
        <time>2023-05-18T02:53:44Z</time>
      </trkpt>
      <trkpt lat="50.50004" lon="3.72405">
        <ele>80</ele>
        <time>2023-05-18T02:53:53Z</time>
      </trkpt>
      <trkpt lat="50.50014" lon="3.72382">
        <ele>81</ele>
        <time>2023-05-18T02:53:58Z</time>
      </trkpt>
      <trkpt lat="50.50023" lon="3.72352">
        <ele>82</ele>
        <time>2023-05-18T02:54:02Z</time>
      </trkpt>
      <trkpt lat="50.5002" lon="3.72321">
        <ele>83</ele>
        <time>2023-05-18T02:54:07Z</time>
      </trkpt>
      <trkpt lat="50.50012" lon="3.72312">
        <ele>82</ele>
        <time>2023-05-18T02:54:09Z</time>
      </trkpt>
      <trkpt lat="50.50005" lon="3.72319">
        <ele>82</ele>
        <time>2023-05-18T02:54:11Z</time>
      </trkpt>
      <trkpt lat="50.50008" lon="3.7235">
        <ele>81</ele>
        <time>2023-05-18T02:54:16Z</time>
      </trkpt>
      <trkpt lat="50.49987" lon="3.72383">
        <ele>79</ele>
        <time>2023-05-18T02:54:23Z</time>
      </trkpt>
      <trkpt lat="50.49981" lon="3.72417">
        <ele>79</ele>
        <time>2023-05-18T02:54:28Z</time>
      </trkpt>
      <trkpt lat="50.49987" lon="3.7245">
        <ele>79</ele>
        <time>2023-05-18T02:54:33Z</time>
      </trkpt>
      <trkpt lat="50.50006" lon="3.72467">
        <ele>79</ele>
        <time>2023-05-18T02:54:38Z</time>
      </trkpt>
      <trkpt lat="50.50003" lon="3.72512">
        <ele>79</ele>
        <time>2023-05-18T02:54:45Z</time>
      </trkpt>
      <trkpt lat="50.50057" lon="3.72599">
        <ele>83</ele>
        <time>2023-05-18T02:55:03Z</time>
      </trkpt>
      <trkpt lat="50.50037" lon="3.72624">
        <ele>82</ele>
        <time>2023-05-18T02:55:09Z</time>
      </trkpt>
      <trkpt lat="50.50014" lon="3.72667">
        <ele>80</ele>
        <time>2023-05-18T02:55:17Z</time>
      </trkpt>
      <trkpt lat="50.50007" lon="3.72709">
        <ele>78</ele>
        <time>2023-05-18T02:55:24Z</time>
      </trkpt>
      <trkpt lat="50.49996" lon="3.72731">
        <ele>76</ele>
        <time>2023-05-18T02:55:28Z</time>
      </trkpt>
      <trkpt lat="50.49997" lon="3.72752">
        <ele>76</ele>
        <time>2023-05-18T02:55:31Z</time>
      </trkpt>
      <trkpt lat="50.49927" lon="3.72635">
        <ele>75</ele>
        <time>2023-05-18T02:55:55Z</time>
      </trkpt>
      <trkpt lat="50.49845" lon="3.7249">
        <ele>71</ele>
        <time>2023-05-18T02:56:24Z</time>
      </trkpt>
      <trkpt lat="50.49833" lon="3.72424">
        <ele>72</ele>
        <time>2023-05-18T02:56:34Z</time>
      </trkpt>
      <trkpt lat="50.49873" lon="3.72398">
        <ele>74</ele>
        <time>2023-05-18T02:56:44Z</time>
      </trkpt>
      <trkpt lat="50.49898" lon="3.72335">
        <ele>76</ele>
        <time>2023-05-18T02:56:55Z</time>
      </trkpt>
      <trkpt lat="50.49882" lon="3.72326">
        <ele>75</ele>
        <time>2023-05-18T02:56:59Z</time>
      </trkpt>
      <trkpt lat="50.49869" lon="3.72287">
        <ele>76</ele>
        <time>2023-05-18T02:57:06Z</time>
      </trkpt>
      <trkpt lat="50.49836" lon="3.72248">
        <ele>76</ele>
        <time>2023-05-18T02:57:15Z</time>
      </trkpt>
      <trkpt lat="50.49852" lon="3.72207">
        <ele>78</ele>
        <time>2023-05-18T02:57:23Z</time>
      </trkpt>
      <trkpt lat="50.49818" lon="3.72152">
        <ele>78</ele>
        <time>2023-05-18T02:57:34Z</time>
      </trkpt>
      <trkpt lat="50.49791" lon="3.72163">
        <ele>76</ele>
        <time>2023-05-18T02:57:40Z</time>
      </trkpt>
      <trkpt lat="50.49765" lon="3.72027">
        <ele>77</ele>
        <time>2023-05-18T02:58:02Z</time>
      </trkpt>
      <trkpt lat="50.49747" lon="3.71995">
        <ele>77</ele>
        <time>2023-05-18T02:58:08Z</time>
      </trkpt>
      <trkpt lat="50.49765" lon="3.71961">
        <ele>81</ele>
        <time>2023-05-18T02:58:14Z</time>
      </trkpt>
      <trkpt lat="50.49726" lon="3.71922">
        <ele>82</ele>
        <time>2023-05-18T02:58:25Z</time>
      </trkpt>
      <trkpt lat="50.49712" lon="3.71918">
        <ele>82</ele>
        <time>2023-05-18T02:58:29Z</time>
      </trkpt>
      <trkpt lat="50.49701" lon="3.71907">
        <ele>82</ele>
        <time>2023-05-18T02:58:32Z</time>
      </trkpt>
      <trkpt lat="50.49686" lon="3.71899">
        <ele>81</ele>
        <time>2023-05-18T02:58:35Z</time>
      </trkpt>
      <trkpt lat="50.49676" lon="3.71887">
        <ele>81</ele>
        <time>2023-05-18T02:58:38Z</time>
      </trkpt>
      <trkpt lat="50.49655" lon="3.71899">
        <ele>80</ele>
        <time>2023-05-18T02:58:43Z</time>
      </trkpt>
      <trkpt lat="50.49629" lon="3.71944">
        <ele>76</ele>
        <time>2023-05-18T02:58:52Z</time>
      </trkpt>
      <trkpt lat="50.49617" lon="3.71935">
        <ele>75</ele>
        <time>2023-05-18T02:58:56Z</time>
      </trkpt>
      <trkpt lat="50.49628" lon="3.71879">
        <ele>78</ele>
        <time>2023-05-18T02:59:04Z</time>
      </trkpt>
      <trkpt lat="50.49654" lon="3.71842">
        <ele>81</ele>
        <time>2023-05-18T02:59:12Z</time>
      </trkpt>
      <trkpt lat="50.49707" lon="3.71814">
        <ele>83</ele>
        <time>2023-05-18T02:59:26Z</time>
      </trkpt>
      <trkpt lat="50.49765" lon="3.71768">
        <ele>83</ele>
        <time>2023-05-18T02:59:41Z</time>
      </trkpt>
      <trkpt lat="50.49814" lon="3.71745">
        <ele>80</ele>
        <time>2023-05-18T02:59:53Z</time>
      </trkpt>
      <trkpt lat="50.49838" lon="3.71601">
        <ele>77</ele>
        <time>2023-05-18T03:00:15Z</time>
      </trkpt>
      <trkpt lat="50.49998" lon="3.71522">
        <ele>73</ele>
        <time>2023-05-18T03:00:54Z</time>
      </trkpt>
      <trkpt lat="50.50041" lon="3.71486">
        <ele>70</ele>
        <time>2023-05-18T03:01:05Z</time>
      </trkpt>
      <trkpt lat="50.50193" lon="3.71473">
        <ele>64</ele>
        <time>2023-05-18T03:01:41Z</time>
      </trkpt>
      <trkpt lat="50.50197" lon="3.71217">
        <ele>60</ele>
        <time>2023-05-18T03:02:19Z</time>
      </trkpt>
      <trkpt lat="50.50222" lon="3.70953">
        <ele>59</ele>
        <time>2023-05-18T03:02:59Z</time>
      </trkpt>
      <trkpt lat="50.50199" lon="3.70592">
        <ele>58</ele>
        <time>2023-05-18T03:03:52Z</time>
      </trkpt>
      <trkpt lat="50.50186" lon="3.70433">
        <ele>56</ele>
        <time>2023-05-18T03:04:16Z</time>
      </trkpt>
      <trkpt lat="50.50236" lon="3.7042">
        <ele>55</ele>
        <time>2023-05-18T03:04:28Z</time>
      </trkpt>
      <trkpt lat="50.50268" lon="3.70371">
        <ele>54</ele>
        <time>2023-05-18T03:04:39Z</time>
      </trkpt>
      <trkpt lat="50.50276" lon="3.70318">
        <ele>54</ele>
        <time>2023-05-18T03:04:47Z</time>
      </trkpt>
      <trkpt lat="50.50256" lon="3.70267">
        <ele>55</ele>
        <time>2023-05-18T03:04:56Z</time>
      </trkpt>
      <trkpt lat="50.50263" lon="3.70089">
        <ele>56</ele>
        <time>2023-05-18T03:05:22Z</time>
      </trkpt>
      <trkpt lat="50.50246" lon="3.69926">
        <ele>53</ele>
        <time>2023-05-18T03:05:47Z</time>
      </trkpt>
      <trkpt lat="50.49829" lon="3.70026">
        <ele>72</ele>
        <time>2023-05-18T03:07:25Z</time>
      </trkpt>
      <trkpt lat="50.49708" lon="3.70084">
        <ele>75</ele>
        <time>2023-05-18T03:07:55Z</time>
      </trkpt>
      <trkpt lat="50.49681" lon="3.70028">
        <ele>77</ele>
        <time>2023-05-18T03:08:05Z</time>
      </trkpt>
      <trkpt lat="50.49448" lon="3.70069">
        <ele>81</ele>
        <time>2023-05-18T03:09:00Z</time>
      </trkpt>
      <trkpt lat="50.49455" lon="3.70065">
        <ele>81</ele>
        <time>2023-05-18T03:09:02Z</time>
      </trkpt>
      <trkpt lat="50.4944" lon="3.70019">
        <ele>83</ele>
        <time>2023-05-18T03:09:09Z</time>
      </trkpt>
      <trkpt lat="50.49444" lon="3.69977">
        <ele>84</ele>
        <time>2023-05-18T03:09:16Z</time>
      </trkpt>
      <trkpt lat="50.49448" lon="3.69968">
        <ele>84</ele>
        <time>2023-05-18T03:09:17Z</time>
      </trkpt>
      <trkpt lat="50.49449" lon="3.69939">
        <ele>84</ele>
        <time>2023-05-18T03:09:21Z</time>
      </trkpt>
      <trkpt lat="50.49443" lon="3.69924">
        <ele>84</ele>
        <time>2023-05-18T03:09:24Z</time>
      </trkpt>
      <trkpt lat="50.49444" lon="3.69887">
        <ele>84</ele>
        <time>2023-05-18T03:09:30Z</time>
      </trkpt>
      <trkpt lat="50.49442" lon="3.69876">
        <ele>84</ele>
        <time>2023-05-18T03:09:31Z</time>
      </trkpt>
      <trkpt lat="50.49429" lon="3.6986">
        <ele>83</ele>
        <time>2023-05-18T03:09:35Z</time>
      </trkpt>
      <trkpt lat="50.49435" lon="3.69813">
        <ele>83</ele>
        <time>2023-05-18T03:09:42Z</time>
      </trkpt>
      <trkpt lat="50.49432" lon="3.69774">
        <ele>82</ele>
        <time>2023-05-18T03:09:48Z</time>
      </trkpt>
      <trkpt lat="50.49432" lon="3.69733">
        <ele>82</ele>
        <time>2023-05-18T03:09:54Z</time>
      </trkpt>
      <trkpt lat="50.49423" lon="3.69711">
        <ele>82</ele>
        <time>2023-05-18T03:09:58Z</time>
      </trkpt>
      <trkpt lat="50.49392" lon="3.69675">
        <ele>81</ele>
        <time>2023-05-18T03:10:07Z</time>
      </trkpt>
      <trkpt lat="50.49332" lon="3.69481">
        <ele>77</ele>
        <time>2023-05-18T03:10:39Z</time>
      </trkpt>
      <trkpt lat="50.49421" lon="3.69475">
        <ele>77</ele>
        <time>2023-05-18T03:11:00Z</time>
      </trkpt>
      <trkpt lat="50.49443" lon="3.6947">
        <ele>76</ele>
        <time>2023-05-18T03:11:05Z</time>
      </trkpt>
      <trkpt lat="50.49474" lon="3.69467">
        <ele>75</ele>
        <time>2023-05-18T03:11:12Z</time>
      </trkpt>
      <trkpt lat="50.49529" lon="3.69465">
        <ele>72</ele>
        <time>2023-05-18T03:11:25Z</time>
      </trkpt>
      <trkpt lat="50.49954" lon="3.6943">
        <ele>57</ele>
        <time>2023-05-18T03:13:05Z</time>
      </trkpt>
      <trkpt lat="50.50013" lon="3.69428">
        <ele>56</ele>
        <time>2023-05-18T03:13:18Z</time>
      </trkpt>
      <trkpt lat="50.50069" lon="3.69414">
        <ele>54</ele>
        <time>2023-05-18T03:13:32Z</time>
      </trkpt>
      <trkpt lat="50.50208" lon="3.69399">
        <ele>53</ele>
        <time>2023-05-18T03:14:04Z</time>
      </trkpt>
      <trkpt lat="50.50199" lon="3.69377">
        <ele>54</ele>
        <time>2023-05-18T03:14:08Z</time>
      </trkpt>
      <trkpt lat="50.50203" lon="3.6935">
        <ele>54</ele>
        <time>2023-05-18T03:14:12Z</time>
      </trkpt>
      <trkpt lat="50.50214" lon="3.69306">
        <ele>53</ele>
        <time>2023-05-18T03:14:19Z</time>
      </trkpt>
      <trkpt lat="50.502" lon="3.69024">
        <ele>50</ele>
        <time>2023-05-18T03:15:01Z</time>
      </trkpt>
      <trkpt lat="50.50204" lon="3.69002">
        <ele>49</ele>
        <time>2023-05-18T03:15:05Z</time>
      </trkpt>
      <trkpt lat="50.50201" lon="3.68957">
        <ele>49</ele>
        <time>2023-05-18T03:15:11Z</time>
      </trkpt>
      <trkpt lat="50.50195" lon="3.68942">
        <ele>49</ele>
        <time>2023-05-18T03:15:14Z</time>
      </trkpt>
      <trkpt lat="50.50155" lon="3.68254">
        <ele>49</ele>
        <time>2023-05-18T03:16:57Z</time>
      </trkpt>
      <trkpt lat="50.50149" lon="3.682">
        <ele>49</ele>
        <time>2023-05-18T03:17:05Z</time>
      </trkpt>
      <trkpt lat="50.50152" lon="3.68171">
        <ele>48</ele>
        <time>2023-05-18T03:17:09Z</time>
      </trkpt>
      <trkpt lat="50.50148" lon="3.68066">
        <ele>48</ele>
        <time>2023-05-18T03:17:25Z</time>
      </trkpt>
      <trkpt lat="50.50149" lon="3.67883">
        <ele>44</ele>
        <time>2023-05-18T03:17:52Z</time>
      </trkpt>
      <trkpt lat="50.50147" lon="3.67869">
        <ele>44</ele>
        <time>2023-05-18T03:17:54Z</time>
      </trkpt>
      <trkpt lat="50.50137" lon="3.67862">
        <ele>44</ele>
        <time>2023-05-18T03:17:57Z</time>
      </trkpt>
      <trkpt lat="50.50135" lon="3.67851">
        <ele>44</ele>
        <time>2023-05-18T03:17:58Z</time>
      </trkpt>
      <trkpt lat="50.50134" lon="3.67829">
        <ele>44</ele>
        <time>2023-05-18T03:18:02Z</time>
      </trkpt>
      <trkpt lat="50.50141" lon="3.67784">
        <ele>42</ele>
        <time>2023-05-18T03:18:08Z</time>
      </trkpt>
      <trkpt lat="50.50119" lon="3.67725">
        <ele>43</ele>
        <time>2023-05-18T03:18:19Z</time>
      </trkpt>
      <trkpt lat="50.5011" lon="3.67712">
        <ele>44</ele>
        <time>2023-05-18T03:18:21Z</time>
      </trkpt>
      <trkpt lat="50.50051" lon="3.67655">
        <ele>46</ele>
        <time>2023-05-18T03:18:38Z</time>
      </trkpt>
      <trkpt lat="50.4998" lon="3.67513">
        <ele>42</ele>
        <time>2023-05-18T03:19:04Z</time>
      </trkpt>
      <trkpt lat="50.4996" lon="3.67481">
        <ele>41</ele>
        <time>2023-05-18T03:19:11Z</time>
      </trkpt>
      <trkpt lat="50.49925" lon="3.67531">
        <ele>42</ele>
        <time>2023-05-18T03:19:22Z</time>
      </trkpt>
      <trkpt lat="50.49877" lon="3.67565">
        <ele>44</ele>
        <time>2023-05-18T03:19:34Z</time>
      </trkpt>
      <trkpt lat="50.49865" lon="3.67576">
        <ele>44</ele>
        <time>2023-05-18T03:19:38Z</time>
      </trkpt>
      <trkpt lat="50.49845" lon="3.67579">
        <ele>45</ele>
        <time>2023-05-18T03:19:42Z</time>
      </trkpt>
      <trkpt lat="50.49821" lon="3.67574">
        <ele>45</ele>
        <time>2023-05-18T03:19:48Z</time>
      </trkpt>
      <trkpt lat="50.49739" lon="3.67547">
        <ele>48</ele>
        <time>2023-05-18T03:20:08Z</time>
      </trkpt>
      <trkpt lat="50.49685" lon="3.67539">
        <ele>48</ele>
        <time>2023-05-18T03:20:20Z</time>
      </trkpt>
      <trkpt lat="50.49651" lon="3.67521">
        <ele>49</ele>
        <time>2023-05-18T03:20:29Z</time>
      </trkpt>
      <trkpt lat="50.49648" lon="3.67513">
        <ele>49</ele>
        <time>2023-05-18T03:20:30Z</time>
      </trkpt>
      <trkpt lat="50.49669" lon="3.6742">
        <ele>48</ele>
        <time>2023-05-18T03:20:45Z</time>
      </trkpt>
      <trkpt lat="50.49668" lon="3.67396">
        <ele>47</ele>
        <time>2023-05-18T03:20:48Z</time>
      </trkpt>
      <trkpt lat="50.49659" lon="3.6734">
        <ele>46</ele>
        <time>2023-05-18T03:20:57Z</time>
      </trkpt>
      <trkpt lat="50.49637" lon="3.67261">
        <ele>46</ele>
        <time>2023-05-18T03:21:10Z</time>
      </trkpt>
      <trkpt lat="50.49626" lon="3.67182">
        <ele>46</ele>
        <time>2023-05-18T03:21:22Z</time>
      </trkpt>
      <trkpt lat="50.49582" lon="3.6712">
        <ele>47</ele>
        <time>2023-05-18T03:21:35Z</time>
      </trkpt>
      <trkpt lat="50.49556" lon="3.67094">
        <ele>48</ele>
        <time>2023-05-18T03:21:43Z</time>
      </trkpt>
      <trkpt lat="50.4953" lon="3.6706">
        <ele>49</ele>
        <time>2023-05-18T03:21:51Z</time>
      </trkpt>
      <trkpt lat="50.4948" lon="3.67059">
        <ele>51</ele>
        <time>2023-05-18T03:22:02Z</time>
      </trkpt>
      <trkpt lat="50.49458" lon="3.66962">
        <ele>52</ele>
        <time>2023-05-18T03:22:18Z</time>
      </trkpt>
      <trkpt lat="50.4942" lon="3.6687">
        <ele>54</ele>
        <time>2023-05-18T03:22:34Z</time>
      </trkpt>
      <trkpt lat="50.49386" lon="3.66799">
        <ele>53</ele>
        <time>2023-05-18T03:22:47Z</time>
      </trkpt>
      <trkpt lat="50.49414" lon="3.66741">
        <ele>54</ele>
        <time>2023-05-18T03:22:58Z</time>
      </trkpt>
      <trkpt lat="50.49407" lon="3.66722">
        <ele>53</ele>
        <time>2023-05-18T03:23:01Z</time>
      </trkpt>
      <trkpt lat="50.49385" lon="3.66685">
        <ele>53</ele>
        <time>2023-05-18T03:23:09Z</time>
      </trkpt>
      <trkpt lat="50.49359" lon="3.66668">
        <ele>53</ele>
        <time>2023-05-18T03:23:15Z</time>
      </trkpt>
      <trkpt lat="50.49322" lon="3.66589">
        <ele>53</ele>
        <time>2023-05-18T03:23:30Z</time>
      </trkpt>
      <trkpt lat="50.49297" lon="3.66548">
        <ele>53</ele>
        <time>2023-05-18T03:23:38Z</time>
      </trkpt>
      <trkpt lat="50.49263" lon="3.66484">
        <ele>54</ele>
        <time>2023-05-18T03:23:51Z</time>
      </trkpt>
      <trkpt lat="50.49242" lon="3.66453">
        <ele>54</ele>
        <time>2023-05-18T03:23:57Z</time>
      </trkpt>
      <trkpt lat="50.49231" lon="3.66453">
        <ele>53</ele>
        <time>2023-05-18T03:24:00Z</time>
      </trkpt>
      <trkpt lat="50.49222" lon="3.66462">
        <ele>53</ele>
        <time>2023-05-18T03:24:02Z</time>
      </trkpt>
      <trkpt lat="50.49213" lon="3.66481">
        <ele>52</ele>
        <time>2023-05-18T03:24:06Z</time>
      </trkpt>
      <trkpt lat="50.49187" lon="3.66463">
        <ele>51</ele>
        <time>2023-05-18T03:24:13Z</time>
      </trkpt>
      <trkpt lat="50.49203" lon="3.66392">
        <ele>50</ele>
        <time>2023-05-18T03:24:24Z</time>
      </trkpt>
      <trkpt lat="50.49221" lon="3.6636">
        <ele>50</ele>
        <time>2023-05-18T03:24:30Z</time>
      </trkpt>
      <trkpt lat="50.49232" lon="3.66348">
        <ele>51</ele>
        <time>2023-05-18T03:24:33Z</time>
      </trkpt>
      <trkpt lat="50.49249" lon="3.6634">
        <ele>52</ele>
        <time>2023-05-18T03:24:37Z</time>
      </trkpt>
      <trkpt lat="50.49262" lon="3.6635">
        <ele>53</ele>
        <time>2023-05-18T03:24:41Z</time>
      </trkpt>
      <trkpt lat="50.49282" lon="3.66372">
        <ele>53</ele>
        <time>2023-05-18T03:24:46Z</time>
      </trkpt>
      <trkpt lat="50.49293" lon="3.66375">
        <ele>53</ele>
        <time>2023-05-18T03:24:49Z</time>
      </trkpt>
      <trkpt lat="50.49279" lon="3.66359">
        <ele>53</ele>
        <time>2023-05-18T03:24:53Z</time>
      </trkpt>
      <trkpt lat="50.49267" lon="3.66339">
        <ele>53</ele>
        <time>2023-05-18T03:24:57Z</time>
      </trkpt>
      <trkpt lat="50.49182" lon="3.66129">
        <ele>39</ele>
        <time>2023-05-18T03:25:34Z</time>
      </trkpt>
      <trkpt lat="50.49327" lon="3.66179">
        <ele>52</ele>
        <time>2023-05-18T03:26:09Z</time>
      </trkpt>
      <trkpt lat="50.49437" lon="3.66231">
        <ele>55</ele>
        <time>2023-05-18T03:26:36Z</time>
      </trkpt>
      <trkpt lat="50.49608" lon="3.66284">
        <ele>55</ele>
        <time>2023-05-18T03:27:16Z</time>
      </trkpt>
      <trkpt lat="50.49629" lon="3.66286">
        <ele>55</ele>
        <time>2023-05-18T03:27:21Z</time>
      </trkpt>
      <trkpt lat="50.49638" lon="3.66302">
        <ele>54</ele>
        <time>2023-05-18T03:27:24Z</time>
      </trkpt>
      <trkpt lat="50.49657" lon="3.66318">
        <ele>54</ele>
        <time>2023-05-18T03:27:29Z</time>
      </trkpt>
      <trkpt lat="50.49768" lon="3.66497">
        <ele>53</ele>
        <time>2023-05-18T03:28:07Z</time>
      </trkpt>
      <trkpt lat="50.49755" lon="3.66521">
        <ele>52</ele>
        <time>2023-05-18T03:28:11Z</time>
      </trkpt>
      <trkpt lat="50.49753" lon="3.66517">
        <ele>53</ele>
        <time>2023-05-18T03:28:12Z</time>
      </trkpt>
      <trkpt lat="50.49707" lon="3.66618">
        <ele>49</ele>
        <time>2023-05-18T03:28:31Z</time>
      </trkpt>
      <trkpt lat="50.49719" lon="3.66608">
        <ele>49</ele>
        <time>2023-05-18T03:28:34Z</time>
      </trkpt>
      <trkpt lat="50.4973" lon="3.66592">
        <ele>49</ele>
        <time>2023-05-18T03:28:37Z</time>
      </trkpt>
      <trkpt lat="50.4974" lon="3.66584">
        <ele>49</ele>
        <time>2023-05-18T03:28:40Z</time>
      </trkpt>
      <trkpt lat="50.49777" lon="3.6657">
        <ele>48</ele>
        <time>2023-05-18T03:28:49Z</time>
      </trkpt>
      <trkpt lat="50.49864" lon="3.66494">
        <ele>44</ele>
        <time>2023-05-18T03:29:12Z</time>
      </trkpt>
      <trkpt lat="50.49878" lon="3.66361">
        <ele>44</ele>
        <time>2023-05-18T03:29:32Z</time>
      </trkpt>
      <trkpt lat="50.49912" lon="3.66337">
        <ele>39</ele>
        <time>2023-05-18T03:29:41Z</time>
      </trkpt>
      <trkpt lat="50.49962" lon="3.66321">
        <ele>36</ele>
        <time>2023-05-18T03:29:53Z</time>
      </trkpt>
      <trkpt lat="50.49988" lon="3.66315">
        <ele>35</ele>
        <time>2023-05-18T03:29:59Z</time>
      </trkpt>
      <trkpt lat="50.50022" lon="3.66315">
        <ele>36</ele>
        <time>2023-05-18T03:30:07Z</time>
      </trkpt>
      <trkpt lat="50.50028" lon="3.66305">
        <ele>36</ele>
        <time>2023-05-18T03:30:09Z</time>
      </trkpt>
      <trkpt lat="50.50032" lon="3.6629">
        <ele>36</ele>
        <time>2023-05-18T03:30:11Z</time>
      </trkpt>
      <trkpt lat="50.50028" lon="3.66255">
        <ele>36</ele>
        <time>2023-05-18T03:30:16Z</time>
      </trkpt>
      <trkpt lat="50.50012" lon="3.6626">
        <ele>35</ele>
        <time>2023-05-18T03:30:20Z</time>
      </trkpt>
      <trkpt lat="50.49995" lon="3.66251">
        <ele>35</ele>
        <time>2023-05-18T03:30:24Z</time>
      </trkpt>
      <trkpt lat="50.49836" lon="3.66049">
        <ele>35</ele>
        <time>2023-05-18T03:31:12Z</time>
      </trkpt>
      <trkpt lat="50.49739" lon="3.6593">
        <ele>35</ele>
        <time>2023-05-18T03:31:41Z</time>
      </trkpt>
      <trkpt lat="50.49699" lon="3.6589">
        <ele>34</ele>
        <time>2023-05-18T03:31:52Z</time>
      </trkpt>
      <trkpt lat="50.4962" lon="3.65832">
        <ele>35</ele>
        <time>2023-05-18T03:32:12Z</time>
      </trkpt>
      <trkpt lat="50.49595" lon="3.65817">
        <ele>36</ele>
        <time>2023-05-18T03:32:19Z</time>
      </trkpt>
      <trkpt lat="50.49521" lon="3.65788">
        <ele>36</ele>
        <time>2023-05-18T03:32:36Z</time>
      </trkpt>
      <trkpt lat="50.49441" lon="3.65775">
        <ele>35</ele>
        <time>2023-05-18T03:32:55Z</time>
      </trkpt>
      <trkpt lat="50.49343" lon="3.6578">
        <ele>32</ele>
        <time>2023-05-18T03:33:18Z</time>
      </trkpt>
      <trkpt lat="50.4927" lon="3.65802">
        <ele>32</ele>
        <time>2023-05-18T03:33:35Z</time>
      </trkpt>
      <trkpt lat="50.49251" lon="3.65805">
        <ele>31</ele>
        <time>2023-05-18T03:33:40Z</time>
      </trkpt>
      <trkpt lat="50.49238" lon="3.658">
        <ele>31</ele>
        <time>2023-05-18T03:33:43Z</time>
      </trkpt>
      <trkpt lat="50.49224" lon="3.65781">
        <ele>31</ele>
        <time>2023-05-18T03:33:47Z</time>
      </trkpt>
      <trkpt lat="50.49217" lon="3.6575">
        <ele>32</ele>
        <time>2023-05-18T03:33:52Z</time>
      </trkpt>
      <trkpt lat="50.49226" lon="3.65711">
        <ele>33</ele>
        <time>2023-05-18T03:33:58Z</time>
      </trkpt>
      <trkpt lat="50.49376" lon="3.65207">
        <ele>33</ele>
        <time>2023-05-18T03:35:21Z</time>
      </trkpt>
      <trkpt lat="50.49394" lon="3.6522">
        <ele>34</ele>
        <time>2023-05-18T03:35:26Z</time>
      </trkpt>
      <trkpt lat="50.49413" lon="3.65243">
        <ele>36</ele>
        <time>2023-05-18T03:35:31Z</time>
      </trkpt>
      <trkpt lat="50.4942" lon="3.65268">
        <ele>36</ele>
        <time>2023-05-18T03:35:35Z</time>
      </trkpt>
      <trkpt lat="50.49454" lon="3.6528">
        <ele>37</ele>
        <time>2023-05-18T03:35:43Z</time>
      </trkpt>
      <trkpt lat="50.4951" lon="3.65289">
        <ele>39</ele>
        <time>2023-05-18T03:35:57Z</time>
      </trkpt>
      <trkpt lat="50.49537" lon="3.65289">
        <ele>41</ele>
        <time>2023-05-18T03:36:03Z</time>
      </trkpt>
      <trkpt lat="50.4956" lon="3.65379">
        <ele>43</ele>
        <time>2023-05-18T03:36:17Z</time>
      </trkpt>
      <trkpt lat="50.49567" lon="3.65403">
        <ele>44</ele>
        <time>2023-05-18T03:36:21Z</time>
      </trkpt>
      <trkpt lat="50.49575" lon="3.6542">
        <ele>44</ele>
        <time>2023-05-18T03:36:24Z</time>
      </trkpt>
      <trkpt lat="50.49586" lon="3.65432">
        <ele>45</ele>
        <time>2023-05-18T03:36:27Z</time>
      </trkpt>
      <trkpt lat="50.49666" lon="3.65485">
        <ele>45</ele>
        <time>2023-05-18T03:36:48Z</time>
      </trkpt>
      <trkpt lat="50.49674" lon="3.65501">
        <ele>44</ele>
        <time>2023-05-18T03:36:51Z</time>
      </trkpt>
      <trkpt lat="50.49705" lon="3.65406">
        <ele>46</ele>
        <time>2023-05-18T03:37:07Z</time>
      </trkpt>
      <trkpt lat="50.4972" lon="3.65241">
        <ele>51</ele>
        <time>2023-05-18T03:37:31Z</time>
      </trkpt>
      <trkpt lat="50.49744" lon="3.65157">
        <ele>57</ele>
        <time>2023-05-18T03:37:45Z</time>
      </trkpt>
      <trkpt lat="50.4973" lon="3.65021">
        <ele>61</ele>
        <time>2023-05-18T03:38:06Z</time>
      </trkpt>
      <trkpt lat="50.49751" lon="3.65001">
        <ele>62</ele>
        <time>2023-05-18T03:38:11Z</time>
      </trkpt>
      <trkpt lat="50.49793" lon="3.64742">
        <ele>68</ele>
        <time>2023-05-18T03:38:51Z</time>
      </trkpt>
      <trkpt lat="50.49804" lon="3.64696">
        <ele>70</ele>
        <time>2023-05-18T03:38:58Z</time>
      </trkpt>
      <trkpt lat="50.49849" lon="3.64422">
        <ele>72</ele>
        <time>2023-05-18T03:39:40Z</time>
      </trkpt>
      <trkpt lat="50.49829" lon="3.64324">
        <ele>64</ele>
        <time>2023-05-18T03:39:56Z</time>
      </trkpt>
      <trkpt lat="50.49825" lon="3.6427">
        <ele>59</ele>
        <time>2023-05-18T03:40:04Z</time>
      </trkpt>
      <trkpt lat="50.49844" lon="3.64231">
        <ele>57</ele>
        <time>2023-05-18T03:40:11Z</time>
      </trkpt>
      <trkpt lat="50.50046" lon="3.6388">
        <ele>39</ele>
        <time>2023-05-18T03:41:21Z</time>
      </trkpt>
      <trkpt lat="50.49952" lon="3.63568">
        <ele>44</ele>
        <time>2023-05-18T03:42:13Z</time>
      </trkpt>
      <trkpt lat="50.4993" lon="3.63591">
        <ele>45</ele>
        <time>2023-05-18T03:42:19Z</time>
      </trkpt>
      <trkpt lat="50.49913" lon="3.63605">
        <ele>47</ele>
        <time>2023-05-18T03:42:23Z</time>
      </trkpt>
      <trkpt lat="50.49878" lon="3.63656">
        <ele>55</ele>
        <time>2023-05-18T03:42:34Z</time>
      </trkpt>
      <trkpt lat="50.49834" lon="3.63764">
        <ele>56</ele>
        <time>2023-05-18T03:42:53Z</time>
      </trkpt>
      <trkpt lat="50.49819" lon="3.63807">
        <ele>58</ele>
        <time>2023-05-18T03:43:01Z</time>
      </trkpt>
      <trkpt lat="50.49808" lon="3.63804">
        <ele>59</ele>
        <time>2023-05-18T03:43:03Z</time>
      </trkpt>
      <trkpt lat="50.49805" lon="3.63795">
        <ele>59</ele>
        <time>2023-05-18T03:43:05Z</time>
      </trkpt>
      <trkpt lat="50.49793" lon="3.63784">
        <ele>59</ele>
        <time>2023-05-18T03:43:08Z</time>
      </trkpt>
      <trkpt lat="50.498" lon="3.63773">
        <ele>58</ele>
        <time>2023-05-18T03:43:10Z</time>
      </trkpt>
      <trkpt lat="50.49809" lon="3.63699">
        <ele>59</ele>
        <time>2023-05-18T03:43:22Z</time>
      </trkpt>
      <trkpt lat="50.49808" lon="3.63603">
        <ele>65</ele>
        <time>2023-05-18T03:43:36Z</time>
      </trkpt>
      <trkpt lat="50.49788" lon="3.63509">
        <ele>71</ele>
        <time>2023-05-18T03:43:51Z</time>
      </trkpt>
      <trkpt lat="50.49793" lon="3.63376">
        <ele>70</ele>
        <time>2023-05-18T03:44:10Z</time>
      </trkpt>
      <trkpt lat="50.49773" lon="3.63275">
        <ele>71</ele>
        <time>2023-05-18T03:44:26Z</time>
      </trkpt>
      <trkpt lat="50.49757" lon="3.63155">
        <ele>73</ele>
        <time>2023-05-18T03:44:44Z</time>
      </trkpt>
      <trkpt lat="50.49753" lon="3.63061">
        <ele>72</ele>
        <time>2023-05-18T03:44:58Z</time>
      </trkpt>
      <trkpt lat="50.49758" lon="3.62916">
        <ele>73</ele>
        <time>2023-05-18T03:45:20Z</time>
      </trkpt>
      <trkpt lat="50.4975" lon="3.62856">
        <ele>72</ele>
        <time>2023-05-18T03:45:29Z</time>
      </trkpt>
      <trkpt lat="50.49748" lon="3.62811">
        <ele>71</ele>
        <time>2023-05-18T03:45:36Z</time>
      </trkpt>
      <trkpt lat="50.49754" lon="3.6277">
        <ele>70</ele>
        <time>2023-05-18T03:45:42Z</time>
      </trkpt>
      <trkpt lat="50.49746" lon="3.627">
        <ele>71</ele>
        <time>2023-05-18T03:45:52Z</time>
      </trkpt>
      <trkpt lat="50.49747" lon="3.62549">
        <ele>71</ele>
        <time>2023-05-18T03:46:15Z</time>
      </trkpt>
      <trkpt lat="50.49757" lon="3.62452">
        <ele>66</ele>
        <time>2023-05-18T03:46:30Z</time>
      </trkpt>
      <trkpt lat="50.49757" lon="3.62409">
        <ele>64</ele>
        <time>2023-05-18T03:46:36Z</time>
      </trkpt>
      <trkpt lat="50.49766" lon="3.62345">
        <ele>65</ele>
        <time>2023-05-18T03:46:46Z</time>
      </trkpt>
      <trkpt lat="50.49741" lon="3.62369">
        <ele>64</ele>
        <time>2023-05-18T03:46:52Z</time>
      </trkpt>
      <trkpt lat="50.49718" lon="3.62368">
        <ele>62</ele>
        <time>2023-05-18T03:46:58Z</time>
      </trkpt>
      <trkpt lat="50.49701" lon="3.62375">
        <ele>60</ele>
        <time>2023-05-18T03:47:02Z</time>
      </trkpt>
      <trkpt lat="50.49661" lon="3.62404">
        <ele>56</ele>
        <time>2023-05-18T03:47:12Z</time>
      </trkpt>
      <trkpt lat="50.4964" lon="3.62444">
        <ele>57</ele>
        <time>2023-05-18T03:47:20Z</time>
      </trkpt>
      <trkpt lat="50.49623" lon="3.62497">
        <ele>59</ele>
        <time>2023-05-18T03:47:29Z</time>
      </trkpt>
      <trkpt lat="50.49591" lon="3.62558">
        <ele>56</ele>
        <time>2023-05-18T03:47:41Z</time>
      </trkpt>
      <trkpt lat="50.49578" lon="3.62558">
        <ele>55</ele>
        <time>2023-05-18T03:47:44Z</time>
      </trkpt>
      <trkpt lat="50.49582" lon="3.62451">
        <ele>55</ele>
        <time>2023-05-18T03:47:59Z</time>
      </trkpt>
      <trkpt lat="50.49585" lon="3.62385">
        <ele>54</ele>
        <time>2023-05-18T03:48:09Z</time>
      </trkpt>
      <trkpt lat="50.49599" lon="3.62275">
        <ele>53</ele>
        <time>2023-05-18T03:48:26Z</time>
      </trkpt>
      <trkpt lat="50.49602" lon="3.62199">
        <ele>51</ele>
        <time>2023-05-18T03:48:37Z</time>
      </trkpt>
      <trkpt lat="50.49615" lon="3.62117">
        <ele>51</ele>
        <time>2023-05-18T03:48:50Z</time>
      </trkpt>
      <trkpt lat="50.49614" lon="3.6205">
        <ele>52</ele>
        <time>2023-05-18T03:49:00Z</time>
      </trkpt>
      <trkpt lat="50.4964" lon="3.62051">
        <ele>53</ele>
        <time>2023-05-18T03:49:06Z</time>
      </trkpt>
      <trkpt lat="50.49706" lon="3.62081">
        <ele>62</ele>
        <time>2023-05-18T03:49:22Z</time>
      </trkpt>
      <trkpt lat="50.49763" lon="3.62082">
        <ele>72</ele>
        <time>2023-05-18T03:49:35Z</time>
      </trkpt>
      <trkpt lat="50.4976" lon="3.6199">
        <ele>72</ele>
        <time>2023-05-18T03:49:49Z</time>
      </trkpt>
      <trkpt lat="50.49768" lon="3.61855">
        <ele>73</ele>
        <time>2023-05-18T03:50:09Z</time>
      </trkpt>
      <trkpt lat="50.4979" lon="3.61747">
        <ele>73</ele>
        <time>2023-05-18T03:50:26Z</time>
      </trkpt>
      <trkpt lat="50.4981" lon="3.6163">
        <ele>70</ele>
        <time>2023-05-18T03:50:44Z</time>
      </trkpt>
      <trkpt lat="50.49796" lon="3.61592">
        <ele>68</ele>
        <time>2023-05-18T03:50:50Z</time>
      </trkpt>
      <trkpt lat="50.49774" lon="3.61568">
        <ele>64</ele>
        <time>2023-05-18T03:50:57Z</time>
      </trkpt>
      <trkpt lat="50.49745" lon="3.61557">
        <ele>61</ele>
        <time>2023-05-18T03:51:04Z</time>
      </trkpt>
      <trkpt lat="50.49724" lon="3.61563">
        <ele>60</ele>
        <time>2023-05-18T03:51:09Z</time>
      </trkpt>
      <trkpt lat="50.49715" lon="3.61552">
        <ele>58</ele>
        <time>2023-05-18T03:51:11Z</time>
      </trkpt>
      <trkpt lat="50.49709" lon="3.61533">
        <ele>57</ele>
        <time>2023-05-18T03:51:14Z</time>
      </trkpt>
      <trkpt lat="50.49711" lon="3.615">
        <ele>55</ele>
        <time>2023-05-18T03:51:19Z</time>
      </trkpt>
      <trkpt lat="50.49709" lon="3.61438">
        <ele>54</ele>
        <time>2023-05-18T03:51:29Z</time>
      </trkpt>
      <trkpt lat="50.49701" lon="3.61345">
        <ele>53</ele>
        <time>2023-05-18T03:51:43Z</time>
      </trkpt>
      <trkpt lat="50.49715" lon="3.61301">
        <ele>55</ele>
        <time>2023-05-18T03:51:50Z</time>
      </trkpt>
      <trkpt lat="50.49719" lon="3.61239">
        <ele>56</ele>
        <time>2023-05-18T03:51:59Z</time>
      </trkpt>
      <trkpt lat="50.49713" lon="3.61201">
        <ele>56</ele>
        <time>2023-05-18T03:52:05Z</time>
      </trkpt>
      <trkpt lat="50.49726" lon="3.61195">
        <ele>57</ele>
        <time>2023-05-18T03:52:08Z</time>
      </trkpt>
      <trkpt lat="50.49739" lon="3.61197">
        <ele>59</ele>
        <time>2023-05-18T03:52:11Z</time>
      </trkpt>
      <trkpt lat="50.49747" lon="3.6119">
        <ele>59</ele>
        <time>2023-05-18T03:52:13Z</time>
      </trkpt>
      <trkpt lat="50.49766" lon="3.61185">
        <ele>61</ele>
        <time>2023-05-18T03:52:18Z</time>
      </trkpt>
      <trkpt lat="50.49792" lon="3.61191">
        <ele>62</ele>
        <time>2023-05-18T03:52:24Z</time>
      </trkpt>
      <trkpt lat="50.49784" lon="3.61108">
        <ele>61</ele>
        <time>2023-05-18T03:52:36Z</time>
      </trkpt>
      <trkpt lat="50.49786" lon="3.61102">
        <ele>61</ele>
        <time>2023-05-18T03:52:37Z</time>
      </trkpt>
      <trkpt lat="50.4978" lon="3.61032">
        <ele>61</ele>
        <time>2023-05-18T03:52:48Z</time>
      </trkpt>
      <trkpt lat="50.49829" lon="3.61007">
        <ele>63</ele>
        <time>2023-05-18T03:53:00Z</time>
      </trkpt>
      <trkpt lat="50.49852" lon="3.60986">
        <ele>63</ele>
        <time>2023-05-18T03:53:06Z</time>
      </trkpt>
      <trkpt lat="50.49844" lon="3.60968">
        <ele>62</ele>
        <time>2023-05-18T03:53:09Z</time>
      </trkpt>
      <trkpt lat="50.49884" lon="3.60922">
        <ele>61</ele>
        <time>2023-05-18T03:53:21Z</time>
      </trkpt>
      <trkpt lat="50.49885" lon="3.60928">
        <ele>61</ele>
        <time>2023-05-18T03:53:22Z</time>
      </trkpt>
      <trkpt lat="50.49968" lon="3.60801">
        <ele>49</ele>
        <time>2023-05-18T03:53:49Z</time>
      </trkpt>
      <trkpt lat="50.49969" lon="3.60795">
        <ele>49</ele>
        <time>2023-05-18T03:53:50Z</time>
      </trkpt>
      <trkpt lat="50.50028" lon="3.60796">
        <ele>45</ele>
        <time>2023-05-18T03:54:04Z</time>
      </trkpt>
      <trkpt lat="50.50111" lon="3.60691">
        <ele>39</ele>
        <time>2023-05-18T03:54:28Z</time>
      </trkpt>
      <trkpt lat="50.50077" lon="3.60612">
        <ele>40</ele>
        <time>2023-05-18T03:54:43Z</time>
      </trkpt>
      <trkpt lat="50.50019" lon="3.60495">
        <ele>40</ele>
        <time>2023-05-18T03:55:05Z</time>
      </trkpt>
      <trkpt lat="50.49994" lon="3.60461">
        <ele>39</ele>
        <time>2023-05-18T03:55:12Z</time>
      </trkpt>
      <trkpt lat="50.50035" lon="3.60391">
        <ele>39</ele>
        <time>2023-05-18T03:55:27Z</time>
      </trkpt>
      <trkpt lat="50.50025" lon="3.60325">
        <ele>39</ele>
        <time>2023-05-18T03:55:37Z</time>
      </trkpt>
      <trkpt lat="50.50011" lon="3.60291">
        <ele>39</ele>
        <time>2023-05-18T03:55:43Z</time>
      </trkpt>
      <trkpt lat="50.50303" lon="3.59831">
        <ele>34</ele>
        <time>2023-05-18T03:57:19Z</time>
      </trkpt>
      <trkpt lat="50.50331" lon="3.59802">
        <ele>32</ele>
        <time>2023-05-18T03:57:27Z</time>
      </trkpt>
      <trkpt lat="50.50331" lon="3.59785">
        <ele>33</ele>
        <time>2023-05-18T03:57:30Z</time>
      </trkpt>
      <trkpt lat="50.50323" lon="3.5978">
        <ele>33</ele>
        <time>2023-05-18T03:57:32Z</time>
      </trkpt>
      <trkpt lat="50.5032" lon="3.59767">
        <ele>33</ele>
        <time>2023-05-18T03:57:34Z</time>
      </trkpt>
      <trkpt lat="50.50322" lon="3.59715">
        <ele>33</ele>
        <time>2023-05-18T03:57:41Z</time>
      </trkpt>
      <trkpt lat="50.5032" lon="3.59679">
        <ele>32</ele>
        <time>2023-05-18T03:57:47Z</time>
      </trkpt>
      <trkpt lat="50.50295" lon="3.59546">
        <ele>32</ele>
        <time>2023-05-18T03:58:07Z</time>
      </trkpt>
      <trkpt lat="50.50227" lon="3.59219">
        <ele>36</ele>
        <time>2023-05-18T03:58:58Z</time>
      </trkpt>
      <trkpt lat="50.50214" lon="3.59134">
        <ele>38</ele>
        <time>2023-05-18T03:59:11Z</time>
      </trkpt>
      <trkpt lat="50.50202" lon="3.58921">
        <ele>42</ele>
        <time>2023-05-18T03:59:43Z</time>
      </trkpt>
      <trkpt lat="50.50205" lon="3.58894">
        <ele>42</ele>
        <time>2023-05-18T03:59:47Z</time>
      </trkpt>
      <trkpt lat="50.5022" lon="3.58881">
        <ele>42</ele>
        <time>2023-05-18T03:59:51Z</time>
      </trkpt>
      <trkpt lat="50.50247" lon="3.58882">
        <ele>42</ele>
        <time>2023-05-18T03:59:58Z</time>
      </trkpt>
      <trkpt lat="50.5024" lon="3.58883">
        <ele>42</ele>
        <time>2023-05-18T03:59:59Z</time>
      </trkpt>
      <trkpt lat="50.50254" lon="3.58879">
        <ele>42</ele>
        <time>2023-05-18T04:00:02Z</time>
      </trkpt>
    </trkseg>
  </trk>
</gpx>